<?xml version="1.0" encoding="UTF-8" standalone="no" ?>
<gpx xmlns="http://www.topografix.com/GPX/1/1" xmlns:xsi="http://www.w3.org/2001/XMLSchema-instance" xsi:schemaLocation="http://www.topografix.com/GPX/1/1 http://www.topografix.com/GPX/1/1/gpx.xsd" version="1.1" creator="VisuGPX - https://www.visugpx.com">
  <metadata>
    <name>col de Milières - refuge des Cortalets</name>
    <desc><![CDATA[2017-07 - col de Milières - refuge des Cortalets

[b]album[/b] : [url]https://goo.gl/photos/gd9q48PxMxQgRyP99[/url]
[img]https://4.bp.blogspot.com/-iEkKHX7DpaM/WZG9LunDcII/AAAAAAAAXPk/pQ9-55MIc_YNoKrto5U7o7fFadxFmT0gwCLcBGAs/s1600/2017-07-29_col-mili%25C3%25A8res_refuge-cortalets.JPG[/img]
[b]Idées de randonnées dans la même région[/b]
Parcours : [url]https://www.visugpx.com/membres/24856/montagne/pyrenees/[/url]
Photos : [url]https://jcvertygo.blogspot.com/p/pyrenees.html[/url]]]></desc>
  </metadata>
  <trk>
    <name><![CDATA[col de Milières - refuge des Cortalets_1]]></name>
    <trkseg>
      <trkpt lat="42.56832" lon="2.41493">
        <ele>782.1</ele>
        <time>2017-07-29T12:53:50Z</time>
      </trkpt>
      <trkpt lat="42.56835" lon="2.41495">
        <ele>782.1</ele>
        <time>2017-07-29T12:53:55Z</time>
      </trkpt>
      <trkpt lat="42.56838" lon="2.41496">
        <ele>782.1</ele>
        <time>2017-07-29T12:54:00Z</time>
      </trkpt>
      <trkpt lat="42.56841" lon="2.415">
        <ele>782.66414273605</ele>
        <time>2017-07-29T12:54:05Z</time>
      </trkpt>
      <trkpt lat="42.56842" lon="2.41501">
        <ele>782.66414273605</ele>
        <time>2017-07-29T12:54:10Z</time>
      </trkpt>
      <trkpt lat="42.56842" lon="2.41506">
        <ele>782.66414273605</ele>
        <time>2017-07-29T12:54:15Z</time>
      </trkpt>
      <trkpt lat="42.56844" lon="2.41509">
        <ele>782.66414273605</ele>
        <time>2017-07-29T12:54:21Z</time>
      </trkpt>
      <trkpt lat="42.56786" lon="2.41659">
        <ele>791.98861210619</ele>
        <time>2017-07-29T12:56:55Z</time>
      </trkpt>
      <trkpt lat="42.56778" lon="2.41688">
        <ele>798.69916694556</ele>
        <time>2017-07-29T12:57:13Z</time>
      </trkpt>
      <trkpt lat="42.56778" lon="2.41691">
        <ele>798.69916694556</ele>
        <time>2017-07-29T12:57:15Z</time>
      </trkpt>
      <trkpt lat="42.56773" lon="2.41717">
        <ele>805.0284073593</ele>
        <time>2017-07-29T12:57:37Z</time>
      </trkpt>
      <trkpt lat="42.56765" lon="2.41731">
        <ele>810.97132979201</ele>
        <time>2017-07-29T12:58:00Z</time>
      </trkpt>
      <trkpt lat="42.5676" lon="2.41739">
        <ele>810.97132979201</ele>
        <time>2017-07-29T12:58:00Z</time>
      </trkpt>
      <trkpt lat="42.56732" lon="2.41793">
        <ele>817.50793709906</ele>
        <time>2017-07-29T12:58:52Z</time>
      </trkpt>
      <trkpt lat="42.56728" lon="2.41803">
        <ele>817.50793709906</ele>
        <time>2017-07-29T12:58:52Z</time>
      </trkpt>
      <trkpt lat="42.56686" lon="2.41862">
        <ele>825.83943414055</ele>
        <time>2017-07-29T13:00:02Z</time>
      </trkpt>
      <trkpt lat="42.5668" lon="2.4187">
        <ele>825.83943414055</ele>
        <time>2017-07-29T13:00:02Z</time>
      </trkpt>
      <trkpt lat="42.56673" lon="2.41883">
        <ele>833.44668901334</ele>
        <time>2017-07-29T13:00:19Z</time>
      </trkpt>
      <trkpt lat="42.56668" lon="2.41893">
        <ele>833.44668901334</ele>
        <time>2017-07-29T13:00:19Z</time>
      </trkpt>
      <trkpt lat="42.56658" lon="2.41918">
        <ele>840.85671622162</ele>
        <time>2017-07-29T13:00:39Z</time>
      </trkpt>
      <trkpt lat="42.56658" lon="2.41919">
        <ele>840.85671622162</ele>
        <time>2017-07-29T13:00:40Z</time>
      </trkpt>
      <trkpt lat="42.56646" lon="2.41941">
        <ele>847.64513740918</ele>
        <time>2017-07-29T13:01:00Z</time>
      </trkpt>
      <trkpt lat="42.56641" lon="2.41946">
        <ele>847.64513740918</ele>
        <time>2017-07-29T13:01:08Z</time>
      </trkpt>
      <trkpt lat="42.56633" lon="2.41955">
        <ele>853.77697616497</ele>
        <time>2017-07-29T13:01:17Z</time>
      </trkpt>
      <trkpt lat="42.5663" lon="2.41956">
        <ele>853.77697616497</ele>
        <time>2017-07-29T13:01:20Z</time>
      </trkpt>
      <trkpt lat="42.56622" lon="2.41968">
        <ele>859.24069835733</ele>
        <time>2017-07-29T13:01:38Z</time>
      </trkpt>
      <trkpt lat="42.56622" lon="2.4197">
        <ele>859.24069835733</ele>
        <time>2017-07-29T13:01:40Z</time>
      </trkpt>
      <trkpt lat="42.56617" lon="2.4198">
        <ele>863.77032222131</ele>
        <time>2017-07-29T13:01:57Z</time>
      </trkpt>
      <trkpt lat="42.56612" lon="2.4199">
        <ele>863.77032222131</ele>
        <time>2017-07-29T13:01:57Z</time>
      </trkpt>
      <trkpt lat="42.56603" lon="2.41998">
        <ele>867.5716213025</ele>
        <time>2017-07-29T13:02:06Z</time>
      </trkpt>
      <trkpt lat="42.56575" lon="2.41951">
        <ele>870.52963464153</ele>
        <time>2017-07-29T13:05:00Z</time>
      </trkpt>
      <trkpt lat="42.56565" lon="2.41952">
        <ele>872.79901973126</ele>
        <time>2017-07-29T13:05:20Z</time>
      </trkpt>
      <trkpt lat="42.56577" lon="2.4195">
        <ele>874.32785609148</ele>
        <time>2017-07-29T13:06:36Z</time>
      </trkpt>
      <trkpt lat="42.56568" lon="2.41969">
        <ele>875.00908721422</ele>
        <time>2017-07-29T13:06:57Z</time>
      </trkpt>
      <trkpt lat="42.56569" lon="2.41972">
        <ele>875.00908721422</ele>
        <time>2017-07-29T13:07:05Z</time>
      </trkpt>
      <trkpt lat="42.56569" lon="2.41972">
        <ele>875.00908721422</ele>
        <time>2017-07-29T13:07:16Z</time>
      </trkpt>
      <trkpt lat="42.56563" lon="2.41981">
        <ele>875.22864096756</ele>
        <time>2017-07-29T13:08:06Z</time>
      </trkpt>
      <trkpt lat="42.56562" lon="2.41981">
        <ele>875.22864096756</ele>
        <time>2017-07-29T13:08:06Z</time>
      </trkpt>
      <trkpt lat="42.56554" lon="2.41979">
        <ele>875.16442812574</ele>
        <time>2017-07-29T13:08:26Z</time>
      </trkpt>
      <trkpt lat="42.56568" lon="2.41978">
        <ele>874.98206166264</ele>
        <time>2017-07-29T13:09:07Z</time>
      </trkpt>
      <trkpt lat="42.56563" lon="2.41981">
        <ele>874.98206166264</ele>
        <time>2017-07-29T13:10:43Z</time>
      </trkpt>
      <trkpt lat="42.56558" lon="2.41979">
        <ele>873.96822781931</ele>
        <time>2017-07-29T13:10:43Z</time>
      </trkpt>
      <trkpt lat="42.56554" lon="2.41975">
        <ele>873.96822781931</ele>
        <time>2017-07-29T13:10:49Z</time>
      </trkpt>
      <trkpt lat="42.56553" lon="2.41975">
        <ele>873.96822781931</ele>
        <time>2017-07-29T13:10:50Z</time>
      </trkpt>
      <trkpt lat="42.56389" lon="2.4196">
        <ele>873.98593850003</ele>
        <time>2017-07-29T13:13:42Z</time>
      </trkpt>
      <trkpt lat="42.56388" lon="2.4196">
        <ele>873.98593850003</ele>
        <time>2017-07-29T13:13:43Z</time>
      </trkpt>
      <trkpt lat="42.56368" lon="2.41959">
        <ele>874.05678782971</ele>
        <time>2017-07-29T13:14:00Z</time>
      </trkpt>
      <trkpt lat="42.56364" lon="2.41959">
        <ele>874.05678782971</ele>
        <time>2017-07-29T13:14:05Z</time>
      </trkpt>
      <trkpt lat="42.56333" lon="2.41955">
        <ele>874.90828823552</ele>
        <time>2017-07-29T13:14:54Z</time>
      </trkpt>
      <trkpt lat="42.56324" lon="2.41954">
        <ele>875.62494135377</ele>
        <time>2017-07-29T13:14:54Z</time>
      </trkpt>
      <trkpt lat="42.56284" lon="2.41966">
        <ele>876.86162169996</ele>
        <time>2017-07-29T13:15:41Z</time>
      </trkpt>
      <trkpt lat="42.56226" lon="2.42014">
        <ele>879.61198080991</ele>
        <time>2017-07-29T13:17:00Z</time>
      </trkpt>
      <trkpt lat="42.56188" lon="2.42075">
        <ele>883.76394562904</ele>
        <time>2017-07-29T13:18:04Z</time>
      </trkpt>
      <trkpt lat="42.56184" lon="2.42079">
        <ele>883.76394562904</ele>
        <time>2017-07-29T13:18:05Z</time>
      </trkpt>
      <trkpt lat="42.56199" lon="2.42165">
        <ele>889.09721053373</ele>
        <time>2017-07-29T13:19:00Z</time>
      </trkpt>
      <trkpt lat="42.56193" lon="2.42219">
        <ele>894.81925547201</ele>
        <time>2017-07-29T13:20:35Z</time>
      </trkpt>
      <trkpt lat="42.56189" lon="2.42244">
        <ele>900.03853059926</ele>
        <time>2017-07-29T13:20:35Z</time>
      </trkpt>
      <trkpt lat="42.56194" lon="2.4229">
        <ele>905.16456425124</ele>
        <time>2017-07-29T13:21:17Z</time>
      </trkpt>
      <trkpt lat="42.56196" lon="2.42303">
        <ele>909.83953569699</ele>
        <time>2017-07-29T13:21:17Z</time>
      </trkpt>
      <trkpt lat="42.56195" lon="2.42311">
        <ele>909.83953569699</ele>
        <time>2017-07-29T13:21:33Z</time>
      </trkpt>
      <trkpt lat="42.56194" lon="2.42318">
        <ele>914.27120626846</ele>
        <time>2017-07-29T13:21:33Z</time>
      </trkpt>
      <trkpt lat="42.56201" lon="2.423">
        <ele>918.55563184967</ele>
        <time>2017-07-29T13:22:03Z</time>
      </trkpt>
      <trkpt lat="42.56205" lon="2.42297">
        <ele>918.55563184967</ele>
        <time>2017-07-29T13:22:03Z</time>
      </trkpt>
      <trkpt lat="42.56205" lon="2.42295">
        <ele>918.55563184967</ele>
        <time>2017-07-29T13:22:05Z</time>
      </trkpt>
      <trkpt lat="42.56205" lon="2.4228">
        <ele>922.57165435489</ele>
        <time>2017-07-29T13:22:18Z</time>
      </trkpt>
      <trkpt lat="42.56201" lon="2.42267">
        <ele>926.17626558817</ele>
        <time>2017-07-29T13:22:26Z</time>
      </trkpt>
      <trkpt lat="42.562" lon="2.42266">
        <ele>926.17626558817</ele>
        <time>2017-07-29T13:22:26Z</time>
      </trkpt>
      <trkpt lat="42.56197" lon="2.42256">
        <ele>926.17626558817</ele>
        <time>2017-07-29T13:22:39Z</time>
      </trkpt>
      <trkpt lat="42.56178" lon="2.42233">
        <ele>929.63419692228</ele>
        <time>2017-07-29T13:23:00Z</time>
      </trkpt>
      <trkpt lat="42.56163" lon="2.42223">
        <ele>932.62269192429</ele>
        <time>2017-07-29T13:23:01Z</time>
      </trkpt>
      <trkpt lat="42.56045" lon="2.42217">
        <ele>936.76184747473</ele>
        <time>2017-07-29T13:24:55Z</time>
      </trkpt>
      <trkpt lat="42.56044" lon="2.42219">
        <ele>936.76184747473</ele>
        <time>2017-07-29T13:24:55Z</time>
      </trkpt>
      <trkpt lat="42.5604" lon="2.42226">
        <ele>936.76184747473</ele>
        <time>2017-07-29T13:25:02Z</time>
      </trkpt>
      <trkpt lat="42.56034" lon="2.42239">
        <ele>940.62872556877</ele>
        <time>2017-07-29T13:25:15Z</time>
      </trkpt>
      <trkpt lat="42.56033" lon="2.4224">
        <ele>940.62872556877</ele>
        <time>2017-07-29T13:25:15Z</time>
      </trkpt>
      <trkpt lat="42.56032" lon="2.42241">
        <ele>940.62872556877</ele>
        <time>2017-07-29T13:25:15Z</time>
      </trkpt>
      <trkpt lat="42.56032" lon="2.42263">
        <ele>944.42852104916</ele>
        <time>2017-07-29T13:26:04Z</time>
      </trkpt>
      <trkpt lat="42.56033" lon="2.42263">
        <ele>944.42852104916</ele>
        <time>2017-07-29T13:26:05Z</time>
      </trkpt>
      <trkpt lat="42.5609" lon="2.42266">
        <ele>948.22348768479</ele>
        <time>2017-07-29T13:27:13Z</time>
      </trkpt>
      <trkpt lat="42.56096" lon="2.4227">
        <ele>948.22348768479</ele>
        <time>2017-07-29T13:27:13Z</time>
      </trkpt>
      <trkpt lat="42.56118" lon="2.4233">
        <ele>951.76127711326</ele>
        <time>2017-07-29T13:28:03Z</time>
      </trkpt>
      <trkpt lat="42.56119" lon="2.42352">
        <ele>955.20785203547</ele>
        <time>2017-07-29T13:28:16Z</time>
      </trkpt>
      <trkpt lat="42.56118" lon="2.42362">
        <ele>955.20785203547</ele>
        <time>2017-07-29T13:28:24Z</time>
      </trkpt>
      <trkpt lat="42.56118" lon="2.42383">
        <ele>958.61531644864</ele>
        <time>2017-07-29T13:29:00Z</time>
      </trkpt>
      <trkpt lat="42.56118" lon="2.42382">
        <ele>958.61531644864</ele>
        <time>2017-07-29T13:29:00Z</time>
      </trkpt>
      <trkpt lat="42.56102" lon="2.42424">
        <ele>962.01782696899</ele>
        <time>2017-07-29T13:30:01Z</time>
      </trkpt>
      <trkpt lat="42.561" lon="2.42427">
        <ele>962.01782696899</ele>
        <time>2017-07-29T13:30:05Z</time>
      </trkpt>
      <trkpt lat="42.56096" lon="2.42435">
        <ele>965.13143104041</ele>
        <time>2017-07-29T13:30:20Z</time>
      </trkpt>
      <trkpt lat="42.56088" lon="2.42452">
        <ele>968.17536816177</ele>
        <time>2017-07-29T13:30:40Z</time>
      </trkpt>
      <trkpt lat="42.56081" lon="2.42461">
        <ele>970.96154892529</ele>
        <time>2017-07-29T13:31:00Z</time>
      </trkpt>
      <trkpt lat="42.56071" lon="2.42475">
        <ele>973.61878785379</ele>
        <time>2017-07-29T13:31:37Z</time>
      </trkpt>
      <trkpt lat="42.56069" lon="2.42489">
        <ele>975.97996921372</ele>
        <time>2017-07-29T13:31:54Z</time>
      </trkpt>
      <trkpt lat="42.56065" lon="2.42509">
        <ele>978.35982828092</ele>
        <time>2017-07-29T13:32:12Z</time>
      </trkpt>
      <trkpt lat="42.56062" lon="2.42545">
        <ele>980.85210770354</ele>
        <time>2017-07-29T13:32:52Z</time>
      </trkpt>
      <trkpt lat="42.56025" lon="2.4259">
        <ele>984.92709765414</ele>
        <time>2017-07-29T13:34:20Z</time>
      </trkpt>
      <trkpt lat="42.56021" lon="2.42593">
        <ele>984.92709765414</ele>
        <time>2017-07-29T13:34:25Z</time>
      </trkpt>
      <trkpt lat="42.56018" lon="2.42597">
        <ele>988.77300270964</ele>
        <time>2017-07-29T13:34:35Z</time>
      </trkpt>
      <trkpt lat="42.56011" lon="2.42626">
        <ele>992.97745337416</ele>
        <time>2017-07-29T13:35:15Z</time>
      </trkpt>
      <trkpt lat="42.5601" lon="2.42641">
        <ele>998.12291054624</ele>
        <time>2017-07-29T13:36:04Z</time>
      </trkpt>
      <trkpt lat="42.55997" lon="2.42645">
        <ele>1002.8437903975</ele>
        <time>2017-07-29T13:36:24Z</time>
      </trkpt>
      <trkpt lat="42.55998" lon="2.42646">
        <ele>1002.8437903975</ele>
        <time>2017-07-29T13:36:24Z</time>
      </trkpt>
      <trkpt lat="42.55983" lon="2.4271">
        <ele>1008.0205493448</ele>
        <time>2017-07-29T13:38:00Z</time>
      </trkpt>
      <trkpt lat="42.55984" lon="2.42715">
        <ele>1008.0205493448</ele>
        <time>2017-07-29T13:38:03Z</time>
      </trkpt>
      <trkpt lat="42.5598" lon="2.42741">
        <ele>1012.8983147407</ele>
        <time>2017-07-29T13:38:23Z</time>
      </trkpt>
      <trkpt lat="42.5598" lon="2.42742">
        <ele>1012.8983147407</ele>
        <time>2017-07-29T13:38:25Z</time>
      </trkpt>
      <trkpt lat="42.55983" lon="2.42763">
        <ele>1017.4240406274</ele>
        <time>2017-07-29T13:38:53Z</time>
      </trkpt>
      <trkpt lat="42.5603" lon="2.42923">
        <ele>1023.5015317739</ele>
        <time>2017-07-29T13:42:22Z</time>
      </trkpt>
      <trkpt lat="42.56031" lon="2.42925">
        <ele>1023.5015317739</ele>
        <time>2017-07-29T13:42:25Z</time>
      </trkpt>
      <trkpt lat="42.56053" lon="2.42952">
        <ele>1031.8976567314</ele>
        <time>2017-07-29T13:43:35Z</time>
      </trkpt>
      <trkpt lat="42.5605" lon="2.42979">
        <ele>1040.4996787229</ele>
        <time>2017-07-29T13:44:04Z</time>
      </trkpt>
      <trkpt lat="42.56057" lon="2.43026">
        <ele>1051.5389826443</ele>
        <time>2017-07-29T13:45:27Z</time>
      </trkpt>
      <trkpt lat="42.56054" lon="2.43026">
        <ele>1051.5389826443</ele>
        <time>2017-07-29T13:45:27Z</time>
      </trkpt>
      <trkpt lat="42.56048" lon="2.43026">
        <ele>1051.5389826443</ele>
        <time>2017-07-29T13:45:41Z</time>
      </trkpt>
      <trkpt lat="42.56053" lon="2.43023">
        <ele>1062.7362813531</ele>
        <time>2017-07-29T13:46:21Z</time>
      </trkpt>
      <trkpt lat="42.56044" lon="2.43017">
        <ele>1073.3149128573</ele>
        <time>2017-07-29T13:46:25Z</time>
      </trkpt>
      <trkpt lat="42.56016" lon="2.43005">
        <ele>1083.9783175144</ele>
        <time>2017-07-29T13:47:06Z</time>
      </trkpt>
      <trkpt lat="42.55999" lon="2.43028">
        <ele>1094.2514878439</ele>
        <time>2017-07-29T13:48:01Z</time>
      </trkpt>
      <trkpt lat="42.5598" lon="2.43051">
        <ele>1103.6549095543</ele>
        <time>2017-07-29T13:49:00Z</time>
      </trkpt>
      <trkpt lat="42.55969" lon="2.43081">
        <ele>1114.1018059017</ele>
        <time>2017-07-29T13:49:58Z</time>
      </trkpt>
      <trkpt lat="42.55958" lon="2.43093">
        <ele>1124.4805262621</ele>
        <time>2017-07-29T13:50:20Z</time>
      </trkpt>
      <trkpt lat="42.55959" lon="2.43098">
        <ele>1124.4805262621</ele>
        <time>2017-07-29T13:50:25Z</time>
      </trkpt>
      <trkpt lat="42.55955" lon="2.4311">
        <ele>1133.7814022172</ele>
        <time>2017-07-29T13:50:46Z</time>
      </trkpt>
      <trkpt lat="42.55955" lon="2.43108">
        <ele>1133.7814022172</ele>
        <time>2017-07-29T13:50:46Z</time>
      </trkpt>
      <trkpt lat="42.55955" lon="2.43112">
        <ele>1133.7814022172</ele>
        <time>2017-07-29T13:50:50Z</time>
      </trkpt>
      <trkpt lat="42.55954" lon="2.43113">
        <ele>1133.7814022172</ele>
        <time>2017-07-29T13:50:53Z</time>
      </trkpt>
      <trkpt lat="42.5595" lon="2.43115">
        <ele>1142.3350422414</ele>
        <time>2017-07-29T13:51:01Z</time>
      </trkpt>
      <trkpt lat="42.55953" lon="2.43134">
        <ele>1150.2314928922</ele>
        <time>2017-07-29T13:52:00Z</time>
      </trkpt>
      <trkpt lat="42.55937" lon="2.43139">
        <ele>1157.8735864456</ele>
        <time>2017-07-29T13:52:43Z</time>
      </trkpt>
      <trkpt lat="42.55921" lon="2.43162">
        <ele>1165.2010897576</ele>
        <time>2017-07-29T13:53:17Z</time>
      </trkpt>
      <trkpt lat="42.55917" lon="2.43165">
        <ele>1165.2010897576</ele>
        <time>2017-07-29T13:53:17Z</time>
      </trkpt>
      <trkpt lat="42.55917" lon="2.43164">
        <ele>1165.2010897576</ele>
        <time>2017-07-29T13:53:34Z</time>
      </trkpt>
      <trkpt lat="42.55926" lon="2.43192">
        <ele>1172.1738491606</ele>
        <time>2017-07-29T13:53:51Z</time>
      </trkpt>
      <trkpt lat="42.55925" lon="2.43193">
        <ele>1172.1738491606</ele>
        <time>2017-07-29T13:53:51Z</time>
      </trkpt>
      <trkpt lat="42.55912" lon="2.4319">
        <ele>1178.5394835561</ele>
        <time>2017-07-29T13:54:15Z</time>
      </trkpt>
      <trkpt lat="42.55897" lon="2.43191">
        <ele>1184.1961959782</ele>
        <time>2017-07-29T13:54:32Z</time>
      </trkpt>
      <trkpt lat="42.55883" lon="2.43241">
        <ele>1190.9412601116</ele>
        <time>2017-07-29T13:55:52Z</time>
      </trkpt>
      <trkpt lat="42.55871" lon="2.43254">
        <ele>1197.4797827654</ele>
        <time>2017-07-29T13:56:02Z</time>
      </trkpt>
      <trkpt lat="42.55869" lon="2.43259">
        <ele>1197.4797827654</ele>
        <time>2017-07-29T13:56:06Z</time>
      </trkpt>
      <trkpt lat="42.55863" lon="2.43327">
        <ele>1205.4397799316</ele>
        <time>2017-07-29T13:56:55Z</time>
      </trkpt>
      <trkpt lat="42.55862" lon="2.4336">
        <ele>1212.9373503994</ele>
        <time>2017-07-29T13:57:13Z</time>
      </trkpt>
      <trkpt lat="42.55852" lon="2.43431">
        <ele>1220.6223348302</ele>
        <time>2017-07-29T13:58:03Z</time>
      </trkpt>
      <trkpt lat="42.55849" lon="2.43455">
        <ele>1227.6403322473</ele>
        <time>2017-07-29T13:58:18Z</time>
      </trkpt>
      <trkpt lat="42.55848" lon="2.43457">
        <ele>1227.6403322473</ele>
        <time>2017-07-29T13:58:20Z</time>
      </trkpt>
      <trkpt lat="42.55849" lon="2.43468">
        <ele>1233.8938813687</ele>
        <time>2017-07-29T13:58:40Z</time>
      </trkpt>
      <trkpt lat="42.55852" lon="2.43477">
        <ele>1233.8938813687</ele>
        <time>2017-07-29T13:58:53Z</time>
      </trkpt>
      <trkpt lat="42.55857" lon="2.43495">
        <ele>1239.3671244167</ele>
        <time>2017-07-29T13:59:00Z</time>
      </trkpt>
      <trkpt lat="42.55859" lon="2.43498">
        <ele>1239.3671244167</ele>
        <time>2017-07-29T13:59:01Z</time>
      </trkpt>
      <trkpt lat="42.55873" lon="2.43556">
        <ele>1243.9756752831</ele>
        <time>2017-07-29T13:59:37Z</time>
      </trkpt>
      <trkpt lat="42.5588" lon="2.43561">
        <ele>1243.9756752831</ele>
        <time>2017-07-29T13:59:40Z</time>
      </trkpt>
      <trkpt lat="42.55881" lon="2.43566">
        <ele>1247.8025942151</ele>
        <time>2017-07-29T13:59:45Z</time>
      </trkpt>
      <trkpt lat="42.55885" lon="2.43574">
        <ele>1247.8025942151</ele>
        <time>2017-07-29T13:59:50Z</time>
      </trkpt>
      <trkpt lat="42.55894" lon="2.43585">
        <ele>1250.8695547101</ele>
        <time>2017-07-29T14:00:00Z</time>
      </trkpt>
      <trkpt lat="42.55899" lon="2.4359">
        <ele>1250.8695547101</ele>
        <time>2017-07-29T14:00:05Z</time>
      </trkpt>
      <trkpt lat="42.55904" lon="2.43595">
        <ele>1253.1845179823</ele>
        <time>2017-07-29T14:00:10Z</time>
      </trkpt>
      <trkpt lat="42.55906" lon="2.43599">
        <ele>1253.1845179823</ele>
        <time>2017-07-29T14:00:15Z</time>
      </trkpt>
      <trkpt lat="42.55923" lon="2.43624">
        <ele>1253.6177136972</ele>
        <time>2017-07-29T14:00:40Z</time>
      </trkpt>
      <trkpt lat="42.55945" lon="2.43642">
        <ele>1253.1324607225</ele>
        <time>2017-07-29T14:01:34Z</time>
      </trkpt>
      <trkpt lat="42.55946" lon="2.43635">
        <ele>1253.1324607225</ele>
        <time>2017-07-29T14:01:34Z</time>
      </trkpt>
      <trkpt lat="42.55916" lon="2.43611">
        <ele>1253.503860434</ele>
        <time>2017-07-29T14:02:05Z</time>
      </trkpt>
      <trkpt lat="42.55911" lon="2.43607">
        <ele>1253.503860434</ele>
        <time>2017-07-29T14:02:07Z</time>
      </trkpt>
      <trkpt lat="42.55896" lon="2.436">
        <ele>1253.9798195993</ele>
        <time>2017-07-29T14:02:16Z</time>
      </trkpt>
      <trkpt lat="42.55892" lon="2.43598">
        <ele>1253.9798195993</ele>
        <time>2017-07-29T14:02:20Z</time>
      </trkpt>
      <trkpt lat="42.55822" lon="2.43502">
        <ele>1258.5653866137</ele>
        <time>2017-07-29T14:03:54Z</time>
      </trkpt>
      <trkpt lat="42.55807" lon="2.43481">
        <ele>1262.6510525388</ele>
        <time>2017-07-29T14:04:29Z</time>
      </trkpt>
      <trkpt lat="42.55809" lon="2.4354">
        <ele>1265.544600453</ele>
        <time>2017-07-29T14:05:12Z</time>
      </trkpt>
      <trkpt lat="42.55811" lon="2.43572">
        <ele>1267.7618619641</ele>
        <time>2017-07-29T14:05:31Z</time>
      </trkpt>
      <trkpt lat="42.55812" lon="2.43579">
        <ele>1267.7618619641</ele>
        <time>2017-07-29T14:05:35Z</time>
      </trkpt>
      <trkpt lat="42.55813" lon="2.43581">
        <ele>1267.7618619641</ele>
        <time>2017-07-29T14:05:40Z</time>
      </trkpt>
      <trkpt lat="42.55814" lon="2.43581">
        <ele>1267.7618619641</ele>
        <time>2017-07-29T14:05:45Z</time>
      </trkpt>
      <trkpt lat="42.55817" lon="2.43615">
        <ele>1270.0709271241</ele>
        <time>2017-07-29T14:06:15Z</time>
      </trkpt>
      <trkpt lat="42.55824" lon="2.43624">
        <ele>1270.0709271241</ele>
        <time>2017-07-29T14:06:25Z</time>
      </trkpt>
      <trkpt lat="42.5583" lon="2.43641">
        <ele>1271.9857404544</ele>
        <time>2017-07-29T14:06:39Z</time>
      </trkpt>
      <trkpt lat="42.55838" lon="2.43652">
        <ele>1273.6049821274</ele>
        <time>2017-07-29T14:06:42Z</time>
      </trkpt>
      <trkpt lat="42.55843" lon="2.43662">
        <ele>1273.6049821274</ele>
        <time>2017-07-29T14:06:55Z</time>
      </trkpt>
      <trkpt lat="42.55851" lon="2.43672">
        <ele>1275.0494945402</ele>
        <time>2017-07-29T14:06:59Z</time>
      </trkpt>
      <trkpt lat="42.55883" lon="2.43719">
        <ele>1277.0083119712</ele>
        <time>2017-07-29T14:07:41Z</time>
      </trkpt>
      <trkpt lat="42.55881" lon="2.43724">
        <ele>1277.0083119712</ele>
        <time>2017-07-29T14:07:58Z</time>
      </trkpt>
      <trkpt lat="42.55859" lon="2.43686">
        <ele>1279.2527163421</ele>
        <time>2017-07-29T14:08:30Z</time>
      </trkpt>
      <trkpt lat="42.55849" lon="2.43678">
        <ele>1281.2957547998</ele>
        <time>2017-07-29T14:08:48Z</time>
      </trkpt>
      <trkpt lat="42.55776" lon="2.4359">
        <ele>1285.0514239911</ele>
        <time>2017-07-29T14:10:04Z</time>
      </trkpt>
      <trkpt lat="42.55773" lon="2.43588">
        <ele>1285.0514239911</ele>
        <time>2017-07-29T14:10:04Z</time>
      </trkpt>
      <trkpt lat="42.55771" lon="2.43602">
        <ele>1288.4954456374</ele>
        <time>2017-07-29T14:10:17Z</time>
      </trkpt>
      <trkpt lat="42.55783" lon="2.4365">
        <ele>1291.6131877177</ele>
        <time>2017-07-29T14:10:56Z</time>
      </trkpt>
      <trkpt lat="42.55783" lon="2.43658">
        <ele>1291.6131877177</ele>
        <time>2017-07-29T14:10:56Z</time>
      </trkpt>
      <trkpt lat="42.55777" lon="2.43786">
        <ele>1295.3432608157</ele>
        <time>2017-07-29T14:12:43Z</time>
      </trkpt>
      <trkpt lat="42.55768" lon="2.43795">
        <ele>1298.6789682175</ele>
        <time>2017-07-29T14:12:59Z</time>
      </trkpt>
      <trkpt lat="42.55753" lon="2.43829">
        <ele>1301.8706932434</ele>
        <time>2017-07-29T14:13:23Z</time>
      </trkpt>
      <trkpt lat="42.55742" lon="2.43859">
        <ele>1305.0640143134</ele>
        <time>2017-07-29T14:13:42Z</time>
      </trkpt>
      <trkpt lat="42.55718" lon="2.4389">
        <ele>1308.5809094754</ele>
        <time>2017-07-29T14:14:13Z</time>
      </trkpt>
      <trkpt lat="42.55717" lon="2.43891">
        <ele>1308.5809094754</ele>
        <time>2017-07-29T14:14:13Z</time>
      </trkpt>
      <trkpt lat="42.55732" lon="2.4387">
        <ele>1313.13650291</ele>
        <time>2017-07-29T14:15:11Z</time>
      </trkpt>
      <trkpt lat="42.55737" lon="2.43823">
        <ele>1316.9830344722</ele>
        <time>2017-07-29T14:15:41Z</time>
      </trkpt>
      <trkpt lat="42.55736" lon="2.43813">
        <ele>1316.9830344722</ele>
        <time>2017-07-29T14:15:52Z</time>
      </trkpt>
      <trkpt lat="42.55737" lon="2.43804">
        <ele>1320.3624203911</ele>
        <time>2017-07-29T14:15:56Z</time>
      </trkpt>
      <trkpt lat="42.55738" lon="2.438">
        <ele>1320.3624203911</ele>
        <time>2017-07-29T14:15:56Z</time>
      </trkpt>
      <trkpt lat="42.55746" lon="2.4378">
        <ele>1323.6151529205</ele>
        <time>2017-07-29T14:16:15Z</time>
      </trkpt>
      <trkpt lat="42.55748" lon="2.43776">
        <ele>1323.6151529205</ele>
        <time>2017-07-29T14:16:15Z</time>
      </trkpt>
      <trkpt lat="42.55741" lon="2.43765">
        <ele>1326.8694443236</ele>
        <time>2017-07-29T14:16:50Z</time>
      </trkpt>
      <trkpt lat="42.55727" lon="2.43784">
        <ele>1329.8835499197</ele>
        <time>2017-07-29T14:17:06Z</time>
      </trkpt>
      <trkpt lat="42.55714" lon="2.43797">
        <ele>1332.6645560861</ele>
        <time>2017-07-29T14:17:22Z</time>
      </trkpt>
      <trkpt lat="42.5568" lon="2.43863">
        <ele>1336.8912504812</ele>
        <time>2017-07-29T14:18:15Z</time>
      </trkpt>
      <trkpt lat="42.55674" lon="2.43877">
        <ele>1341.1027307595</ele>
        <time>2017-07-29T14:18:37Z</time>
      </trkpt>
      <trkpt lat="42.55675" lon="2.43885">
        <ele>1341.1027307595</ele>
        <time>2017-07-29T14:18:37Z</time>
      </trkpt>
      <trkpt lat="42.5567" lon="2.4393">
        <ele>1346.2223606286</ele>
        <time>2017-07-29T14:19:19Z</time>
      </trkpt>
      <trkpt lat="42.55678" lon="2.43941">
        <ele>1350.5809296378</ele>
        <time>2017-07-29T14:19:25Z</time>
      </trkpt>
      <trkpt lat="42.55675" lon="2.4395">
        <ele>1350.5809296378</ele>
        <time>2017-07-29T14:19:40Z</time>
      </trkpt>
      <trkpt lat="42.55674" lon="2.4396">
        <ele>1354.4064641728</ele>
        <time>2017-07-29T14:19:50Z</time>
      </trkpt>
      <trkpt lat="42.55672" lon="2.43967">
        <ele>1354.4064641728</ele>
        <time>2017-07-29T14:19:55Z</time>
      </trkpt>
      <trkpt lat="42.55672" lon="2.43981">
        <ele>1357.7530598644</ele>
        <time>2017-07-29T14:20:05Z</time>
      </trkpt>
      <trkpt lat="42.55671" lon="2.43988">
        <ele>1357.7530598644</ele>
        <time>2017-07-29T14:20:10Z</time>
      </trkpt>
      <trkpt lat="42.55672" lon="2.44">
        <ele>1360.6720463072</ele>
        <time>2017-07-29T14:20:25Z</time>
      </trkpt>
      <trkpt lat="42.55671" lon="2.44007">
        <ele>1360.6720463072</ele>
        <time>2017-07-29T14:20:25Z</time>
      </trkpt>
      <trkpt lat="42.55677" lon="2.44033">
        <ele>1363.1544076959</ele>
        <time>2017-07-29T14:20:58Z</time>
      </trkpt>
      <trkpt lat="42.55683" lon="2.44046">
        <ele>1365.2217109487</ele>
        <time>2017-07-29T14:21:15Z</time>
      </trkpt>
      <trkpt lat="42.5566" lon="2.43979">
        <ele>1367.2984904181</ele>
        <time>2017-07-29T14:22:11Z</time>
      </trkpt>
      <trkpt lat="42.55657" lon="2.43977">
        <ele>1367.2984904181</ele>
        <time>2017-07-29T14:22:15Z</time>
      </trkpt>
      <trkpt lat="42.55647" lon="2.43957">
        <ele>1369.1294305418</ele>
        <time>2017-07-29T14:22:42Z</time>
      </trkpt>
      <trkpt lat="42.55646" lon="2.43941">
        <ele>1370.723516434</ele>
        <time>2017-07-29T14:22:42Z</time>
      </trkpt>
      <trkpt lat="42.55642" lon="2.4393">
        <ele>1372.0319505453</ele>
        <time>2017-07-29T14:22:58Z</time>
      </trkpt>
      <trkpt lat="42.55636" lon="2.43922">
        <ele>1372.0319505453</ele>
        <time>2017-07-29T14:22:59Z</time>
      </trkpt>
      <trkpt lat="42.5564" lon="2.43836">
        <ele>1373.7739747677</ele>
        <time>2017-07-29T14:24:06Z</time>
      </trkpt>
      <trkpt lat="42.55638" lon="2.43839">
        <ele>1373.7739747677</ele>
        <time>2017-07-29T14:24:06Z</time>
      </trkpt>
      <trkpt lat="42.55626" lon="2.43861">
        <ele>1375.3752513334</ele>
        <time>2017-07-29T14:24:31Z</time>
      </trkpt>
      <trkpt lat="42.55619" lon="2.43873">
        <ele>1376.8082645679</ele>
        <time>2017-07-29T14:24:31Z</time>
      </trkpt>
      <trkpt lat="42.55617" lon="2.4396">
        <ele>1379.1286859885</ele>
        <time>2017-07-29T14:25:33Z</time>
      </trkpt>
      <trkpt lat="42.55617" lon="2.43971">
        <ele>1379.1286859885</ele>
        <time>2017-07-29T14:25:38Z</time>
      </trkpt>
      <trkpt lat="42.55621" lon="2.43953">
        <ele>1381.9717248441</ele>
        <time>2017-07-29T14:26:10Z</time>
      </trkpt>
      <trkpt lat="42.5562" lon="2.43944">
        <ele>1381.9717248441</ele>
        <time>2017-07-29T14:26:38Z</time>
      </trkpt>
      <trkpt lat="42.55619" lon="2.43921">
        <ele>1385.1418738431</ele>
        <time>2017-07-29T14:26:38Z</time>
      </trkpt>
      <trkpt lat="42.55617" lon="2.43905">
        <ele>1387.981335462</ele>
        <time>2017-07-29T14:26:45Z</time>
      </trkpt>
      <trkpt lat="42.55596" lon="2.43906">
        <ele>1390.8181598817</ele>
        <time>2017-07-29T14:27:45Z</time>
      </trkpt>
      <trkpt lat="42.55591" lon="2.43923">
        <ele>1393.6247037749</ele>
        <time>2017-07-29T14:28:00Z</time>
      </trkpt>
      <trkpt lat="42.55591" lon="2.43932">
        <ele>1393.6247037749</ele>
        <time>2017-07-29T14:28:06Z</time>
      </trkpt>
      <trkpt lat="42.55591" lon="2.43948">
        <ele>1396.63471593</ele>
        <time>2017-07-29T14:28:16Z</time>
      </trkpt>
      <trkpt lat="42.55593" lon="2.43995">
        <ele>1399.8767314156</ele>
        <time>2017-07-29T14:28:57Z</time>
      </trkpt>
      <trkpt lat="42.55595" lon="2.44009">
        <ele>1402.8576110642</ele>
        <time>2017-07-29T14:28:57Z</time>
      </trkpt>
      <trkpt lat="42.55615" lon="2.44044">
        <ele>1405.5966483314</ele>
        <time>2017-07-29T14:29:25Z</time>
      </trkpt>
      <trkpt lat="42.55614" lon="2.44044">
        <ele>1405.5966483314</ele>
        <time>2017-07-29T14:29:30Z</time>
      </trkpt>
      <trkpt lat="42.55611" lon="2.44043">
        <ele>1405.5966483314</ele>
        <time>2017-07-29T14:29:45Z</time>
      </trkpt>
      <trkpt lat="42.5562" lon="2.44043">
        <ele>1407.9393615834</ele>
        <time>2017-07-29T14:29:46Z</time>
      </trkpt>
      <trkpt lat="42.55609" lon="2.44042">
        <ele>1409.2536459173</ele>
        <time>2017-07-29T14:30:35Z</time>
      </trkpt>
      <trkpt lat="42.55604" lon="2.44036">
        <ele>1409.2536459173</ele>
        <time>2017-07-29T14:30:41Z</time>
      </trkpt>
      <trkpt lat="42.556" lon="2.44024">
        <ele>1410.4410005864</ele>
        <time>2017-07-29T14:30:53Z</time>
      </trkpt>
      <trkpt lat="42.556" lon="2.44023">
        <ele>1410.4410005864</ele>
        <time>2017-07-29T14:30:53Z</time>
      </trkpt>
      <trkpt lat="42.55598" lon="2.44016">
        <ele>1410.4410005864</ele>
        <time>2017-07-29T14:31:00Z</time>
      </trkpt>
      <trkpt lat="42.55578" lon="2.44033">
        <ele>1411.3137445563</ele>
        <time>2017-07-29T14:32:27Z</time>
      </trkpt>
      <trkpt lat="42.5557" lon="2.44058">
        <ele>1412.1311044015</ele>
        <time>2017-07-29T14:32:56Z</time>
      </trkpt>
      <trkpt lat="42.55538" lon="2.44093">
        <ele>1413.5080020118</ele>
        <time>2017-07-29T14:33:49Z</time>
      </trkpt>
      <trkpt lat="42.55538" lon="2.44101">
        <ele>1413.5080020118</ele>
        <time>2017-07-29T14:33:51Z</time>
      </trkpt>
      <trkpt lat="42.55538" lon="2.44115">
        <ele>1414.9172348453</ele>
        <time>2017-07-29T14:33:59Z</time>
      </trkpt>
      <trkpt lat="42.55538" lon="2.44137">
        <ele>1416.619508216</ele>
        <time>2017-07-29T14:34:17Z</time>
      </trkpt>
      <trkpt lat="42.55537" lon="2.44139">
        <ele>1416.619508216</ele>
        <time>2017-07-29T14:34:17Z</time>
      </trkpt>
      <trkpt lat="42.55539" lon="2.44146">
        <ele>1416.619508216</ele>
        <time>2017-07-29T14:34:24Z</time>
      </trkpt>
      <trkpt lat="42.55538" lon="2.44149">
        <ele>1418.4519133213</ele>
        <time>2017-07-29T14:34:35Z</time>
      </trkpt>
      <trkpt lat="42.55484" lon="2.4419">
        <ele>1420.4215464007</ele>
        <time>2017-07-29T14:36:03Z</time>
      </trkpt>
      <trkpt lat="42.55483" lon="2.4419">
        <ele>1420.4215464007</ele>
        <time>2017-07-29T14:36:08Z</time>
      </trkpt>
      <trkpt lat="42.5548" lon="2.44196">
        <ele>1420.4215464007</ele>
        <time>2017-07-29T14:36:27Z</time>
      </trkpt>
      <trkpt lat="42.55462" lon="2.44228">
        <ele>1422.8371146944</ele>
        <time>2017-07-29T14:37:07Z</time>
      </trkpt>
      <trkpt lat="42.55457" lon="2.44232">
        <ele>1422.8371146944</ele>
        <time>2017-07-29T14:37:07Z</time>
      </trkpt>
      <trkpt lat="42.55446" lon="2.44247">
        <ele>1425.4068313463</ele>
        <time>2017-07-29T14:37:24Z</time>
      </trkpt>
      <trkpt lat="42.55429" lon="2.4428">
        <ele>1428.6668349737</ele>
        <time>2017-07-29T14:38:15Z</time>
      </trkpt>
      <trkpt lat="42.55422" lon="2.44329">
        <ele>1432.9821448491</ele>
        <time>2017-07-29T14:38:50Z</time>
      </trkpt>
      <trkpt lat="42.55422" lon="2.44332">
        <ele>1432.9821448491</ele>
        <time>2017-07-29T14:38:55Z</time>
      </trkpt>
      <trkpt lat="42.55432" lon="2.44382">
        <ele>1438.3997018351</ele>
        <time>2017-07-29T14:39:30Z</time>
      </trkpt>
      <trkpt lat="42.55426" lon="2.44423">
        <ele>1444.4554583022</ele>
        <time>2017-07-29T14:40:16Z</time>
      </trkpt>
      <trkpt lat="42.5542" lon="2.44431">
        <ele>1444.4554583022</ele>
        <time>2017-07-29T14:40:16Z</time>
      </trkpt>
      <trkpt lat="42.55411" lon="2.44456">
        <ele>1450.587936008</ele>
        <time>2017-07-29T14:40:34Z</time>
      </trkpt>
      <trkpt lat="42.55414" lon="2.44492">
        <ele>1456.5649116103</ele>
        <time>2017-07-29T14:41:00Z</time>
      </trkpt>
      <trkpt lat="42.55418" lon="2.44528">
        <ele>1462.2149196446</ele>
        <time>2017-07-29T14:41:20Z</time>
      </trkpt>
      <trkpt lat="42.55416" lon="2.44549">
        <ele>1467.0918396031</ele>
        <time>2017-07-29T14:41:39Z</time>
      </trkpt>
      <trkpt lat="42.55418" lon="2.44653">
        <ele>1472.0671603428</ele>
        <time>2017-07-29T14:42:56Z</time>
      </trkpt>
      <trkpt lat="42.55421" lon="2.44672">
        <ele>1476.6079324458</ele>
        <time>2017-07-29T14:43:17Z</time>
      </trkpt>
      <trkpt lat="42.55422" lon="2.44682">
        <ele>1476.6079324458</ele>
        <time>2017-07-29T14:43:18Z</time>
      </trkpt>
      <trkpt lat="42.55423" lon="2.44703">
        <ele>1480.5819606383</ele>
        <time>2017-07-29T14:43:44Z</time>
      </trkpt>
      <trkpt lat="42.55408" lon="2.44776">
        <ele>1484.560199121</ele>
        <time>2017-07-29T14:44:20Z</time>
      </trkpt>
      <trkpt lat="42.55404" lon="2.44852">
        <ele>1488.8411903736</ele>
        <time>2017-07-29T14:45:28Z</time>
      </trkpt>
      <trkpt lat="42.55398" lon="2.44857">
        <ele>1488.8411903736</ele>
        <time>2017-07-29T14:45:28Z</time>
      </trkpt>
      <trkpt lat="42.55391" lon="2.44864">
        <ele>1492.7352752737</ele>
        <time>2017-07-29T14:45:36Z</time>
      </trkpt>
      <trkpt lat="42.55389" lon="2.4487">
        <ele>1492.7352752737</ele>
        <time>2017-07-29T14:45:42Z</time>
      </trkpt>
      <trkpt lat="42.55381" lon="2.4492">
        <ele>1496.7719692625</ele>
        <time>2017-07-29T14:46:20Z</time>
      </trkpt>
      <trkpt lat="42.55381" lon="2.44921">
        <ele>1496.7719692625</ele>
        <time>2017-07-29T14:46:27Z</time>
      </trkpt>
      <trkpt lat="42.55379" lon="2.44964">
        <ele>1500.9948729964</ele>
        <time>2017-07-29T14:46:55Z</time>
      </trkpt>
      <trkpt lat="42.55363" lon="2.45069">
        <ele>1505.8042706681</ele>
        <time>2017-07-29T14:48:45Z</time>
      </trkpt>
      <trkpt lat="42.55363" lon="2.45071">
        <ele>1505.8042706681</ele>
        <time>2017-07-29T14:48:50Z</time>
      </trkpt>
      <trkpt lat="42.55359" lon="2.45087">
        <ele>1510.171650857</ele>
        <time>2017-07-29T14:49:14Z</time>
      </trkpt>
      <trkpt lat="42.55359" lon="2.45089">
        <ele>1510.171650857</ele>
        <time>2017-07-29T14:49:15Z</time>
      </trkpt>
      <trkpt lat="42.55356" lon="2.45104">
        <ele>1513.9812758459</ele>
        <time>2017-07-29T14:49:30Z</time>
      </trkpt>
      <trkpt lat="42.5528" lon="2.45106">
        <ele>1517.5455326043</ele>
        <time>2017-07-29T14:50:40Z</time>
      </trkpt>
      <trkpt lat="42.55239" lon="2.45169">
        <ele>1520.8088153918</ele>
        <time>2017-07-29T14:51:45Z</time>
      </trkpt>
      <trkpt lat="42.55226" lon="2.45143">
        <ele>1523.6196977623</ele>
        <time>2017-07-29T14:52:03Z</time>
      </trkpt>
      <trkpt lat="42.55224" lon="2.45141">
        <ele>1523.6196977623</ele>
        <time>2017-07-29T14:52:10Z</time>
      </trkpt>
      <trkpt lat="42.55207" lon="2.45117">
        <ele>1526.0554323397</ele>
        <time>2017-07-29T14:52:24Z</time>
      </trkpt>
      <trkpt lat="42.55188" lon="2.45119">
        <ele>1528.1455239715</ele>
        <time>2017-07-29T14:52:53Z</time>
      </trkpt>
      <trkpt lat="42.55166" lon="2.45126">
        <ele>1529.8607293737</ele>
        <time>2017-07-29T14:53:06Z</time>
      </trkpt>
      <trkpt lat="42.55157" lon="2.45133">
        <ele>1531.2327273905</ele>
        <time>2017-07-29T14:53:08Z</time>
      </trkpt>
      <trkpt lat="42.551" lon="2.45189">
        <ele>1532.3639477486</ele>
        <time>2017-07-29T14:54:19Z</time>
      </trkpt>
      <trkpt lat="42.55089" lon="2.45248">
        <ele>1533.4653004761</ele>
        <time>2017-07-29T14:54:50Z</time>
      </trkpt>
      <trkpt lat="42.55085" lon="2.45256">
        <ele>1533.4653004761</ele>
        <time>2017-07-29T14:54:58Z</time>
      </trkpt>
      <trkpt lat="42.55084" lon="2.4527">
        <ele>1534.6026065776</ele>
        <time>2017-07-29T14:55:05Z</time>
      </trkpt>
      <trkpt lat="42.55087" lon="2.45275">
        <ele>1534.6026065776</ele>
        <time>2017-07-29T14:55:10Z</time>
      </trkpt>
      <trkpt lat="42.55062" lon="2.45311">
        <ele>1536.7734775304</ele>
        <time>2017-07-29T14:56:07Z</time>
      </trkpt>
      <trkpt lat="42.55055" lon="2.45315">
        <ele>1536.7734775304</ele>
        <time>2017-07-29T14:56:07Z</time>
      </trkpt>
      <trkpt lat="42.55044" lon="2.45319">
        <ele>1539.3717510516</ele>
        <time>2017-07-29T14:56:19Z</time>
      </trkpt>
      <trkpt lat="42.55042" lon="2.45321">
        <ele>1539.3717510516</ele>
        <time>2017-07-29T14:56:24Z</time>
      </trkpt>
      <trkpt lat="42.55028" lon="2.45353">
        <ele>1542.7568863643</ele>
        <time>2017-07-29T14:56:58Z</time>
      </trkpt>
      <trkpt lat="42.55022" lon="2.45354">
        <ele>1542.7568863643</ele>
        <time>2017-07-29T14:57:00Z</time>
      </trkpt>
      <trkpt lat="42.54989" lon="2.4536">
        <ele>1546.8706063416</ele>
        <time>2017-07-29T14:57:38Z</time>
      </trkpt>
      <trkpt lat="42.54955" lon="2.45374">
        <ele>1551.2101057854</ele>
        <time>2017-07-29T14:58:00Z</time>
      </trkpt>
      <trkpt lat="42.54948" lon="2.45377">
        <ele>1551.2101057854</ele>
        <time>2017-07-29T14:58:07Z</time>
      </trkpt>
      <trkpt lat="42.54925" lon="2.45429">
        <ele>1556.3752928343</ele>
        <time>2017-07-29T14:58:55Z</time>
      </trkpt>
      <trkpt lat="42.54921" lon="2.45434">
        <ele>1556.3752928343</ele>
        <time>2017-07-29T14:59:02Z</time>
      </trkpt>
      <trkpt lat="42.54901" lon="2.45451">
        <ele>1561.0030087094</ele>
        <time>2017-07-29T14:59:28Z</time>
      </trkpt>
      <trkpt lat="42.54907" lon="2.45515">
        <ele>1565.2008056614</ele>
        <time>2017-07-29T15:00:09Z</time>
      </trkpt>
      <trkpt lat="42.54917" lon="2.45533">
        <ele>1568.7813377634</ele>
        <time>2017-07-29T15:00:25Z</time>
      </trkpt>
      <trkpt lat="42.5495" lon="2.45617">
        <ele>1571.8898231336</ele>
        <time>2017-07-29T15:01:35Z</time>
      </trkpt>
      <trkpt lat="42.5497" lon="2.45639">
        <ele>1574.8783307595</ele>
        <time>2017-07-29T15:01:50Z</time>
      </trkpt>
      <trkpt lat="42.54978" lon="2.45649">
        <ele>1577.9004962972</ele>
        <time>2017-07-29T15:02:05Z</time>
      </trkpt>
      <trkpt lat="42.54975" lon="2.45654">
        <ele>1577.9004962972</ele>
        <time>2017-07-29T15:02:20Z</time>
      </trkpt>
      <trkpt lat="42.54975" lon="2.45705">
        <ele>1580.7671422752</ele>
        <time>2017-07-29T15:03:04Z</time>
      </trkpt>
      <trkpt lat="42.54975" lon="2.45705">
        <ele>1580.7671422752</ele>
        <time>2017-07-29T15:03:05Z</time>
      </trkpt>
      <trkpt lat="42.54962" lon="2.45716">
        <ele>1583.1305090499</ele>
        <time>2017-07-29T15:03:28Z</time>
      </trkpt>
      <trkpt lat="42.54944" lon="2.45731">
        <ele>1585.2750741592</ele>
        <time>2017-07-29T15:03:59Z</time>
      </trkpt>
      <trkpt lat="42.54937" lon="2.45737">
        <ele>1585.2750741592</ele>
        <time>2017-07-29T15:03:59Z</time>
      </trkpt>
      <trkpt lat="42.54915" lon="2.45767">
        <ele>1587.3065134824</ele>
        <time>2017-07-29T15:04:30Z</time>
      </trkpt>
      <trkpt lat="42.54904" lon="2.45785">
        <ele>1589.2221750037</ele>
        <time>2017-07-29T15:04:50Z</time>
      </trkpt>
      <trkpt lat="42.54879" lon="2.45889">
        <ele>1591.5963576306</ele>
        <time>2017-07-29T15:06:02Z</time>
      </trkpt>
      <trkpt lat="42.54871" lon="2.45934">
        <ele>1593.9222636981</ele>
        <time>2017-07-29T15:06:36Z</time>
      </trkpt>
      <trkpt lat="42.54866" lon="2.45967">
        <ele>1596.2492311443</ele>
        <time>2017-07-29T15:07:00Z</time>
      </trkpt>
      <trkpt lat="42.54812" lon="2.46068">
        <ele>1599.6317155305</ele>
        <time>2017-07-29T15:08:53Z</time>
      </trkpt>
      <trkpt lat="42.54787" lon="2.46051">
        <ele>1602.9108707702</ele>
        <time>2017-07-29T15:09:31Z</time>
      </trkpt>
      <trkpt lat="42.54782" lon="2.46046">
        <ele>1602.9108707702</ele>
        <time>2017-07-29T15:09:31Z</time>
      </trkpt>
      <trkpt lat="42.54769" lon="2.46042">
        <ele>1605.8202558203</ele>
        <time>2017-07-29T15:09:48Z</time>
      </trkpt>
      <trkpt lat="42.54732" lon="2.46047">
        <ele>1608.3013488292</ele>
        <time>2017-07-29T15:10:30Z</time>
      </trkpt>
      <trkpt lat="42.54708" lon="2.46051">
        <ele>1610.459615254</ele>
        <time>2017-07-29T15:10:50Z</time>
      </trkpt>
      <trkpt lat="42.54702" lon="2.46057">
        <ele>1610.459615254</ele>
        <time>2017-07-29T15:11:05Z</time>
      </trkpt>
      <trkpt lat="42.54673" lon="2.4607">
        <ele>1612.3359960788</ele>
        <time>2017-07-29T15:11:40Z</time>
      </trkpt>
      <trkpt lat="42.54659" lon="2.46071">
        <ele>1614.0124055588</ele>
        <time>2017-07-29T15:11:57Z</time>
      </trkpt>
      <trkpt lat="42.54656" lon="2.46075">
        <ele>1614.0124055588</ele>
        <time>2017-07-29T15:11:57Z</time>
      </trkpt>
      <trkpt lat="42.54649" lon="2.46088">
        <ele>1615.7814184121</ele>
        <time>2017-07-29T15:12:09Z</time>
      </trkpt>
      <trkpt lat="42.54648" lon="2.46089">
        <ele>1615.7814184121</ele>
        <time>2017-07-29T15:12:10Z</time>
      </trkpt>
      <trkpt lat="42.54641" lon="2.46105">
        <ele>1617.9138007535</ele>
        <time>2017-07-29T15:13:08Z</time>
      </trkpt>
      <trkpt lat="42.54642" lon="2.46105">
        <ele>1617.9138007535</ele>
        <time>2017-07-29T15:13:08Z</time>
      </trkpt>
      <trkpt lat="42.54645" lon="2.46099">
        <ele>1617.9138007535</ele>
        <time>2017-07-29T15:13:30Z</time>
      </trkpt>
      <trkpt lat="42.54645" lon="2.46095">
        <ele>1617.9138007535</ele>
        <time>2017-07-29T15:13:30Z</time>
      </trkpt>
      <trkpt lat="42.54635" lon="2.46091">
        <ele>1620.6881699314</ele>
        <time>2017-07-29T15:13:49Z</time>
      </trkpt>
      <trkpt lat="42.54633" lon="2.46104">
        <ele>1625.5425263525</ele>
        <time>2017-07-29T15:15:00Z</time>
      </trkpt>
      <trkpt lat="42.54641" lon="2.46137">
        <ele>1629.9411660881</ele>
        <time>2017-07-29T15:15:40Z</time>
      </trkpt>
      <trkpt lat="42.54646" lon="2.46142">
        <ele>1629.9411660881</ele>
        <time>2017-07-29T15:15:45Z</time>
      </trkpt>
      <trkpt lat="42.5465" lon="2.46159">
        <ele>1634.1010683034</ele>
        <time>2017-07-29T15:16:14Z</time>
      </trkpt>
      <trkpt lat="42.54651" lon="2.46161">
        <ele>1634.1010683034</ele>
        <time>2017-07-29T15:16:15Z</time>
      </trkpt>
      <trkpt lat="42.54653" lon="2.46164">
        <ele>1634.1010683034</ele>
        <time>2017-07-29T15:16:20Z</time>
      </trkpt>
      <trkpt lat="42.54652" lon="2.46162">
        <ele>1634.1010683034</ele>
        <time>2017-07-29T15:16:25Z</time>
      </trkpt>
      <trkpt lat="42.54658" lon="2.46172">
        <ele>1637.4601197474</ele>
        <time>2017-07-29T15:17:08Z</time>
      </trkpt>
      <trkpt lat="42.54657" lon="2.46172">
        <ele>1637.4601197474</ele>
        <time>2017-07-29T15:17:10Z</time>
      </trkpt>
      <trkpt lat="42.54651" lon="2.46188">
        <ele>1640.7534907828</ele>
        <time>2017-07-29T15:17:35Z</time>
      </trkpt>
      <trkpt lat="42.54658" lon="2.46195">
        <ele>1640.7534907828</ele>
        <time>2017-07-29T15:17:45Z</time>
      </trkpt>
      <trkpt lat="42.54649" lon="2.46188">
        <ele>1644.6625167433</ele>
        <time>2017-07-29T15:18:30Z</time>
      </trkpt>
      <trkpt lat="42.54645" lon="2.46186">
        <ele>1644.6625167433</ele>
        <time>2017-07-29T15:19:00Z</time>
      </trkpt>
      <trkpt lat="42.54646" lon="2.46189">
        <ele>1644.6625167433</ele>
        <time>2017-07-29T15:19:08Z</time>
      </trkpt>
      <trkpt lat="42.54637" lon="2.46182">
        <ele>1649.8167501812</ele>
        <time>2017-07-29T15:19:25Z</time>
      </trkpt>
      <trkpt lat="42.54632" lon="2.46173">
        <ele>1649.8167501812</ele>
        <time>2017-07-29T15:19:35Z</time>
      </trkpt>
      <trkpt lat="42.54624" lon="2.46165">
        <ele>1654.490229158</ele>
        <time>2017-07-29T15:19:40Z</time>
      </trkpt>
      <trkpt lat="42.54616" lon="2.4616">
        <ele>1654.490229158</ele>
        <time>2017-07-29T15:20:01Z</time>
      </trkpt>
      <trkpt lat="42.54626" lon="2.46174">
        <ele>1658.7568327723</ele>
        <time>2017-07-29T15:20:57Z</time>
      </trkpt>
      <trkpt lat="42.54602" lon="2.46169">
        <ele>1661.9368008157</ele>
        <time>2017-07-29T15:21:56Z</time>
      </trkpt>
      <trkpt lat="42.54581" lon="2.46129">
        <ele>1665.4497672494</ele>
        <time>2017-07-29T15:23:03Z</time>
      </trkpt>
      <trkpt lat="42.54566" lon="2.46125">
        <ele>1668.9529044405</ele>
        <time>2017-07-29T15:23:15Z</time>
      </trkpt>
      <trkpt lat="42.54562" lon="2.46123">
        <ele>1668.9529044405</ele>
        <time>2017-07-29T15:23:20Z</time>
      </trkpt>
      <trkpt lat="42.54552" lon="2.46116">
        <ele>1672.5177345281</ele>
        <time>2017-07-29T15:23:40Z</time>
      </trkpt>
      <trkpt lat="42.54552" lon="2.46115">
        <ele>1672.5177345281</ele>
        <time>2017-07-29T15:23:40Z</time>
      </trkpt>
      <trkpt lat="42.54538" lon="2.46098">
        <ele>1676.9165375771</ele>
        <time>2017-07-29T15:24:04Z</time>
      </trkpt>
      <trkpt lat="42.54533" lon="2.46096">
        <ele>1676.9165375771</ele>
        <time>2017-07-29T15:24:08Z</time>
      </trkpt>
      <trkpt lat="42.54529" lon="2.46095">
        <ele>1681.1476434209</ele>
        <time>2017-07-29T15:24:27Z</time>
      </trkpt>
      <trkpt lat="42.54516" lon="2.4609">
        <ele>1685.3931383561</ele>
        <time>2017-07-29T15:24:27Z</time>
      </trkpt>
      <trkpt lat="42.54514" lon="2.46092">
        <ele>1685.3931383561</ele>
        <time>2017-07-29T15:24:44Z</time>
      </trkpt>
      <trkpt lat="42.54505" lon="2.46086">
        <ele>1689.6488122992</ele>
        <time>2017-07-29T15:24:44Z</time>
      </trkpt>
      <trkpt lat="42.54483" lon="2.46098">
        <ele>1693.6513943623</ele>
        <time>2017-07-29T15:25:29Z</time>
      </trkpt>
      <trkpt lat="42.54476" lon="2.461">
        <ele>1693.6513943623</ele>
        <time>2017-07-29T15:25:33Z</time>
      </trkpt>
      <trkpt lat="42.54476" lon="2.46101">
        <ele>1693.6513943623</ele>
        <time>2017-07-29T15:25:33Z</time>
      </trkpt>
      <trkpt lat="42.54485" lon="2.46149">
        <ele>1698.3970834625</ele>
        <time>2017-07-29T15:26:23Z</time>
      </trkpt>
      <trkpt lat="42.54478" lon="2.4614">
        <ele>1702.7460926633</ele>
        <time>2017-07-29T15:26:43Z</time>
      </trkpt>
      <trkpt lat="42.54477" lon="2.46138">
        <ele>1702.7460926633</ele>
        <time>2017-07-29T15:27:08Z</time>
      </trkpt>
      <trkpt lat="42.54468" lon="2.46137">
        <ele>1707.2143611533</ele>
        <time>2017-07-29T15:27:25Z</time>
      </trkpt>
      <trkpt lat="42.54458" lon="2.46135">
        <ele>1711.4005925519</ele>
        <time>2017-07-29T15:27:46Z</time>
      </trkpt>
      <trkpt lat="42.54431" lon="2.46133">
        <ele>1716.1731991958</ele>
        <time>2017-07-29T15:28:17Z</time>
      </trkpt>
      <trkpt lat="42.54409" lon="2.46145">
        <ele>1720.7067853043</ele>
        <time>2017-07-29T15:28:40Z</time>
      </trkpt>
      <trkpt lat="42.54408" lon="2.46147">
        <ele>1720.7067853043</ele>
        <time>2017-07-29T15:28:40Z</time>
      </trkpt>
      <trkpt lat="42.54394" lon="2.46153">
        <ele>1725.2461265959</ele>
        <time>2017-07-29T15:29:04Z</time>
      </trkpt>
      <trkpt lat="42.54373" lon="2.46146">
        <ele>1729.8307501777</ele>
        <time>2017-07-29T15:29:30Z</time>
      </trkpt>
      <trkpt lat="42.54361" lon="2.46135">
        <ele>1734.2234373476</ele>
        <time>2017-07-29T15:29:48Z</time>
      </trkpt>
      <trkpt lat="42.5436" lon="2.46135">
        <ele>1734.2234373476</ele>
        <time>2017-07-29T15:29:54Z</time>
      </trkpt>
      <trkpt lat="42.54342" lon="2.46158">
        <ele>1738.824710208</ele>
        <time>2017-07-29T15:30:35Z</time>
      </trkpt>
      <trkpt lat="42.54345" lon="2.46162">
        <ele>1738.824710208</ele>
        <time>2017-07-29T15:30:40Z</time>
      </trkpt>
      <trkpt lat="42.54345" lon="2.46166">
        <ele>1738.824710208</ele>
        <time>2017-07-29T15:30:45Z</time>
      </trkpt>
      <trkpt lat="42.54342" lon="2.46165">
        <ele>1743.1693385949</ele>
        <time>2017-07-29T15:30:55Z</time>
      </trkpt>
      <trkpt lat="42.54344" lon="2.46165">
        <ele>1743.1693385949</ele>
        <time>2017-07-29T15:31:00Z</time>
      </trkpt>
      <trkpt lat="42.54353" lon="2.46168">
        <ele>1747.2738325548</ele>
        <time>2017-07-29T15:31:28Z</time>
      </trkpt>
      <trkpt lat="42.54363" lon="2.46178">
        <ele>1750.8372168389</ele>
        <time>2017-07-29T15:31:30Z</time>
      </trkpt>
      <trkpt lat="42.5437" lon="2.46182">
        <ele>1750.8372168389</ele>
        <time>2017-07-29T15:31:40Z</time>
      </trkpt>
      <trkpt lat="42.54377" lon="2.46181">
        <ele>1754.0145716465</ele>
        <time>2017-07-29T15:31:55Z</time>
      </trkpt>
      <trkpt lat="42.54381" lon="2.46179">
        <ele>1754.0145716465</ele>
        <time>2017-07-29T15:32:00Z</time>
      </trkpt>
      <trkpt lat="42.54397" lon="2.46182">
        <ele>1756.96516685</ele>
        <time>2017-07-29T15:32:15Z</time>
      </trkpt>
      <trkpt lat="42.5442" lon="2.46198">
        <ele>1759.6355311584</ele>
        <time>2017-07-29T15:32:40Z</time>
      </trkpt>
      <trkpt lat="42.54429" lon="2.46206">
        <ele>1762.0490293597</ele>
        <time>2017-07-29T15:32:55Z</time>
      </trkpt>
      <trkpt lat="42.5444" lon="2.46211">
        <ele>1764.0695608745</ele>
        <time>2017-07-29T15:33:06Z</time>
      </trkpt>
      <trkpt lat="42.54441" lon="2.46224">
        <ele>1766.0765523982</ele>
        <time>2017-07-29T15:33:31Z</time>
      </trkpt>
      <trkpt lat="42.54435" lon="2.46229">
        <ele>1766.0765523982</ele>
        <time>2017-07-29T15:33:45Z</time>
      </trkpt>
      <trkpt lat="42.5442" lon="2.46254">
        <ele>1769.1421762875</ele>
        <time>2017-07-29T15:34:21Z</time>
      </trkpt>
      <trkpt lat="42.54408" lon="2.46275">
        <ele>1772.2105073055</ele>
        <time>2017-07-29T15:34:45Z</time>
      </trkpt>
      <trkpt lat="42.54407" lon="2.46288">
        <ele>1775.081382267</ele>
        <time>2017-07-29T15:35:06Z</time>
      </trkpt>
      <trkpt lat="42.54407" lon="2.4629">
        <ele>1775.081382267</ele>
        <time>2017-07-29T15:35:10Z</time>
      </trkpt>
      <trkpt lat="42.54401" lon="2.46313">
        <ele>1777.9589900316</ele>
        <time>2017-07-29T15:35:35Z</time>
      </trkpt>
      <trkpt lat="42.54403" lon="2.46324">
        <ele>1777.9589900316</ele>
        <time>2017-07-29T15:35:43Z</time>
      </trkpt>
      <trkpt lat="42.54404" lon="2.46333">
        <ele>1780.5280995081</ele>
        <time>2017-07-29T15:35:50Z</time>
      </trkpt>
      <trkpt lat="42.54402" lon="2.46339">
        <ele>1780.5280995081</ele>
        <time>2017-07-29T15:35:59Z</time>
      </trkpt>
      <trkpt lat="42.54402" lon="2.46349">
        <ele>1782.7424709617</ele>
        <time>2017-07-29T15:36:05Z</time>
      </trkpt>
      <trkpt lat="42.5441" lon="2.46381">
        <ele>1784.7475728457</ele>
        <time>2017-07-29T15:36:38Z</time>
      </trkpt>
      <trkpt lat="42.54409" lon="2.46379">
        <ele>1784.7475728457</ele>
        <time>2017-07-29T15:37:10Z</time>
      </trkpt>
      <trkpt lat="42.54381" lon="2.46317">
        <ele>1789.1718644664</ele>
        <time>2017-07-29T15:38:10Z</time>
      </trkpt>
      <trkpt lat="42.54371" lon="2.46292">
        <ele>1793.6161731344</ele>
        <time>2017-07-29T15:38:35Z</time>
      </trkpt>
      <trkpt lat="42.54369" lon="2.46286">
        <ele>1793.6161731344</ele>
        <time>2017-07-29T15:38:35Z</time>
      </trkpt>
      <trkpt lat="42.54359" lon="2.46263">
        <ele>1797.8462107596</ele>
        <time>2017-07-29T15:39:02Z</time>
      </trkpt>
      <trkpt lat="42.54353" lon="2.46262">
        <ele>1797.8462107596</ele>
        <time>2017-07-29T15:39:05Z</time>
      </trkpt>
      <trkpt lat="42.54347" lon="2.46266">
        <ele>1801.731937396</ele>
        <time>2017-07-29T15:39:31Z</time>
      </trkpt>
      <trkpt lat="42.54332" lon="2.46274">
        <ele>1805.5861417714</ele>
        <time>2017-07-29T15:39:55Z</time>
      </trkpt>
      <trkpt lat="42.54321" lon="2.46272">
        <ele>1809.1799050664</ele>
        <time>2017-07-29T15:40:19Z</time>
      </trkpt>
      <trkpt lat="42.54317" lon="2.46269">
        <ele>1809.1799050664</ele>
        <time>2017-07-29T15:40:20Z</time>
      </trkpt>
      <trkpt lat="42.54309" lon="2.46288">
        <ele>1812.5468285742</ele>
        <time>2017-07-29T15:40:50Z</time>
      </trkpt>
      <trkpt lat="42.54313" lon="2.46307">
        <ele>1815.661022216</ele>
        <time>2017-07-29T15:41:10Z</time>
      </trkpt>
      <trkpt lat="42.54313" lon="2.46313">
        <ele>1815.661022216</ele>
        <time>2017-07-29T15:41:10Z</time>
      </trkpt>
      <trkpt lat="42.54304" lon="2.46346">
        <ele>1819.5367929789</ele>
        <time>2017-07-29T15:42:00Z</time>
      </trkpt>
      <trkpt lat="42.54304" lon="2.4635">
        <ele>1819.5367929789</ele>
        <time>2017-07-29T15:42:08Z</time>
      </trkpt>
      <trkpt lat="42.54302" lon="2.46361">
        <ele>1823.2527529176</ele>
        <time>2017-07-29T15:42:16Z</time>
      </trkpt>
      <trkpt lat="42.54301" lon="2.46363">
        <ele>1823.2527529176</ele>
        <time>2017-07-29T15:42:21Z</time>
      </trkpt>
      <trkpt lat="42.54301" lon="2.46351">
        <ele>1827.0941121313</ele>
        <time>2017-07-29T15:42:58Z</time>
      </trkpt>
      <trkpt lat="42.54301" lon="2.46351">
        <ele>1827.0941121313</ele>
        <time>2017-07-29T15:43:00Z</time>
      </trkpt>
      <trkpt lat="42.54292" lon="2.46332">
        <ele>1830.7339102503</ele>
        <time>2017-07-29T15:43:27Z</time>
      </trkpt>
      <trkpt lat="42.54285" lon="2.46329">
        <ele>1830.7339102503</ele>
        <time>2017-07-29T15:43:50Z</time>
      </trkpt>
      <trkpt lat="42.54277" lon="2.46323">
        <ele>1834.6623732265</ele>
        <time>2017-07-29T15:44:05Z</time>
      </trkpt>
      <trkpt lat="42.54245" lon="2.46295">
        <ele>1838.7852770826</ele>
        <time>2017-07-29T15:45:22Z</time>
      </trkpt>
      <trkpt lat="42.54221" lon="2.46272">
        <ele>1842.7841932148</ele>
        <time>2017-07-29T15:45:41Z</time>
      </trkpt>
      <trkpt lat="42.54219" lon="2.4627">
        <ele>1842.7841932148</ele>
        <time>2017-07-29T15:45:46Z</time>
      </trkpt>
      <trkpt lat="42.54203" lon="2.46268">
        <ele>1846.7535329561</ele>
        <time>2017-07-29T15:46:03Z</time>
      </trkpt>
      <trkpt lat="42.54202" lon="2.4627">
        <ele>1846.7535329561</ele>
        <time>2017-07-29T15:46:05Z</time>
      </trkpt>
      <trkpt lat="42.54194" lon="2.46274">
        <ele>1850.334113855</ele>
        <time>2017-07-29T15:46:18Z</time>
      </trkpt>
      <trkpt lat="42.54194" lon="2.46276">
        <ele>1850.334113855</ele>
        <time>2017-07-29T15:46:20Z</time>
      </trkpt>
      <trkpt lat="42.54201" lon="2.46297">
        <ele>1853.7706791349</ele>
        <time>2017-07-29T15:46:43Z</time>
      </trkpt>
      <trkpt lat="42.54202" lon="2.46303">
        <ele>1853.7706791349</ele>
        <time>2017-07-29T15:46:43Z</time>
      </trkpt>
      <trkpt lat="42.54204" lon="2.46311">
        <ele>1857.045413616</ele>
        <time>2017-07-29T15:46:52Z</time>
      </trkpt>
      <trkpt lat="42.54223" lon="2.46354">
        <ele>1860.3296134107</ele>
        <time>2017-07-29T15:47:37Z</time>
      </trkpt>
      <trkpt lat="42.54222" lon="2.46381">
        <ele>1863.7531446496</ele>
        <time>2017-07-29T15:47:53Z</time>
      </trkpt>
      <trkpt lat="42.54222" lon="2.46382">
        <ele>1863.7531446496</ele>
        <time>2017-07-29T15:47:55Z</time>
      </trkpt>
      <trkpt lat="42.54223" lon="2.46407">
        <ele>1867.3638874152</ele>
        <time>2017-07-29T15:48:24Z</time>
      </trkpt>
      <trkpt lat="42.54224" lon="2.46408">
        <ele>1867.3638874152</ele>
        <time>2017-07-29T15:48:25Z</time>
      </trkpt>
      <trkpt lat="42.5423" lon="2.46453">
        <ele>1870.845400163</ele>
        <time>2017-07-29T15:49:05Z</time>
      </trkpt>
      <trkpt lat="42.54233" lon="2.46476">
        <ele>1874.3515919135</ele>
        <time>2017-07-29T15:49:23Z</time>
      </trkpt>
      <trkpt lat="42.54235" lon="2.46488">
        <ele>1874.3515919135</ele>
        <time>2017-07-29T15:49:48Z</time>
      </trkpt>
      <trkpt lat="42.54237" lon="2.46483">
        <ele>1878.0105828482</ele>
        <time>2017-07-29T15:49:48Z</time>
      </trkpt>
      <trkpt lat="42.54239" lon="2.4648">
        <ele>1878.0105828482</ele>
        <time>2017-07-29T15:50:00Z</time>
      </trkpt>
      <trkpt lat="42.54202" lon="2.46441">
        <ele>1882.2144626512</ele>
        <time>2017-07-29T15:51:07Z</time>
      </trkpt>
      <trkpt lat="42.54194" lon="2.46438">
        <ele>1882.2144626512</ele>
        <time>2017-07-29T15:51:10Z</time>
      </trkpt>
      <trkpt lat="42.54176" lon="2.46384">
        <ele>1887.2385248855</ele>
        <time>2017-07-29T15:52:04Z</time>
      </trkpt>
      <trkpt lat="42.54178" lon="2.46382">
        <ele>1887.2385248855</ele>
        <time>2017-07-29T15:52:05Z</time>
      </trkpt>
      <trkpt lat="42.54163" lon="2.46368">
        <ele>1891.7791453181</ele>
        <time>2017-07-29T15:52:23Z</time>
      </trkpt>
      <trkpt lat="42.54161" lon="2.46367">
        <ele>1891.7791453181</ele>
        <time>2017-07-29T15:52:25Z</time>
      </trkpt>
      <trkpt lat="42.5415" lon="2.46347">
        <ele>1896.1429995642</ele>
        <time>2017-07-29T15:53:05Z</time>
      </trkpt>
      <trkpt lat="42.54132" lon="2.4633">
        <ele>1900.297705905</ele>
        <time>2017-07-29T15:53:36Z</time>
      </trkpt>
      <trkpt lat="42.5413" lon="2.46329">
        <ele>1900.297705905</ele>
        <time>2017-07-29T15:53:36Z</time>
      </trkpt>
      <trkpt lat="42.54126" lon="2.46327">
        <ele>1900.297705905</ele>
        <time>2017-07-29T15:53:40Z</time>
      </trkpt>
      <trkpt lat="42.54112" lon="2.46314">
        <ele>1904.1706393763</ele>
        <time>2017-07-29T15:54:02Z</time>
      </trkpt>
      <trkpt lat="42.54116" lon="2.46381">
        <ele>1907.9691389855</ele>
        <time>2017-07-29T15:56:00Z</time>
      </trkpt>
      <trkpt lat="42.54115" lon="2.46404">
        <ele>1912.0296615299</ele>
        <time>2017-07-29T15:56:22Z</time>
      </trkpt>
      <trkpt lat="42.54115" lon="2.46405">
        <ele>1912.0296615299</ele>
        <time>2017-07-29T15:56:25Z</time>
      </trkpt>
      <trkpt lat="42.54114" lon="2.46409">
        <ele>1912.0296615299</ele>
        <time>2017-07-29T15:56:33Z</time>
      </trkpt>
      <trkpt lat="42.54114" lon="2.4641">
        <ele>1912.0296615299</ele>
        <time>2017-07-29T15:56:35Z</time>
      </trkpt>
      <trkpt lat="42.54116" lon="2.46414">
        <ele>1912.0296615299</ele>
        <time>2017-07-29T15:56:40Z</time>
      </trkpt>
      <trkpt lat="42.54116" lon="2.46414">
        <ele>1912.0296615299</ele>
        <time>2017-07-29T15:56:57Z</time>
      </trkpt>
      <trkpt lat="42.54122" lon="2.46437">
        <ele>1915.8562193676</ele>
        <time>2017-07-29T15:58:00Z</time>
      </trkpt>
      <trkpt lat="42.54113" lon="2.46438">
        <ele>1915.8562193676</ele>
        <time>2017-07-29T15:58:45Z</time>
      </trkpt>
      <trkpt lat="42.54112" lon="2.46438">
        <ele>1919.6096229447</ele>
        <time>2017-07-29T15:59:11Z</time>
      </trkpt>
      <trkpt lat="42.54121" lon="2.46439">
        <ele>1923.0355913061</ele>
        <time>2017-07-29T16:00:37Z</time>
      </trkpt>
      <trkpt lat="42.5413" lon="2.4643">
        <ele>1926.2741559866</ele>
        <time>2017-07-29T16:01:30Z</time>
      </trkpt>
      <trkpt lat="42.54117" lon="2.46434">
        <ele>1929.3691428177</ele>
        <time>2017-07-29T16:02:00Z</time>
      </trkpt>
      <trkpt lat="42.54126" lon="2.46438">
        <ele>1932.116588527</ele>
        <time>2017-07-29T16:02:15Z</time>
      </trkpt>
      <trkpt lat="42.54126" lon="2.46438">
        <ele>1932.116588527</ele>
        <time>2017-07-29T16:02:37Z</time>
      </trkpt>
      <trkpt lat="42.54127" lon="2.46442">
        <ele>1932.116588527</ele>
        <time>2017-07-29T16:03:59Z</time>
      </trkpt>
      <trkpt lat="42.54135" lon="2.46417">
        <ele>1935.2219875884</ele>
        <time>2017-07-29T16:06:08Z</time>
      </trkpt>
      <trkpt lat="42.54138" lon="2.46431">
        <ele>1937.9689525969</ele>
        <time>2017-07-29T16:06:08Z</time>
      </trkpt>
      <trkpt lat="42.54143" lon="2.46434">
        <ele>1937.9689525969</ele>
        <time>2017-07-29T16:06:25Z</time>
      </trkpt>
      <trkpt lat="42.54122" lon="2.46442">
        <ele>1940.2279340325</ele>
        <time>2017-07-29T16:07:20Z</time>
      </trkpt>
      <trkpt lat="42.54114" lon="2.46488">
        <ele>1942.2405326372</ele>
        <time>2017-07-29T16:08:08Z</time>
      </trkpt>
      <trkpt lat="42.54119" lon="2.46545">
        <ele>1944.3177363419</ele>
        <time>2017-07-29T16:08:54Z</time>
      </trkpt>
      <trkpt lat="42.5412" lon="2.46546">
        <ele>1944.3177363419</ele>
        <time>2017-07-29T16:08:55Z</time>
      </trkpt>
      <trkpt lat="42.54119" lon="2.46551">
        <ele>1944.3177363419</ele>
        <time>2017-07-29T16:09:13Z</time>
      </trkpt>
      <trkpt lat="42.5412" lon="2.46553">
        <ele>1944.3177363419</ele>
        <time>2017-07-29T16:09:13Z</time>
      </trkpt>
      <trkpt lat="42.54111" lon="2.46534">
        <ele>1947.3239196011</ele>
        <time>2017-07-29T16:09:55Z</time>
      </trkpt>
      <trkpt lat="42.54112" lon="2.46527">
        <ele>1947.3239196011</ele>
        <time>2017-07-29T16:10:03Z</time>
      </trkpt>
      <trkpt lat="42.54091" lon="2.46489">
        <ele>1951.2214711732</ele>
        <time>2017-07-29T16:10:50Z</time>
      </trkpt>
      <trkpt lat="42.5406" lon="2.46414">
        <ele>1956.2612250557</ele>
        <time>2017-07-29T16:12:13Z</time>
      </trkpt>
      <trkpt lat="42.54045" lon="2.46396">
        <ele>1960.6836147892</ele>
        <time>2017-07-29T16:12:37Z</time>
      </trkpt>
      <trkpt lat="42.54025" lon="2.46365">
        <ele>1965.5549139124</ele>
        <time>2017-07-29T16:12:59Z</time>
      </trkpt>
      <trkpt lat="42.54021" lon="2.46359">
        <ele>1965.5549139124</ele>
        <time>2017-07-29T16:13:00Z</time>
      </trkpt>
      <trkpt lat="42.54008" lon="2.46351">
        <ele>1969.8298237586</ele>
        <time>2017-07-29T16:13:20Z</time>
      </trkpt>
      <trkpt lat="42.53947" lon="2.46342">
        <ele>1974.5302325291</ele>
        <time>2017-07-29T16:15:21Z</time>
      </trkpt>
      <trkpt lat="42.53944" lon="2.46346">
        <ele>1974.5302325291</ele>
        <time>2017-07-29T16:15:38Z</time>
      </trkpt>
      <trkpt lat="42.53913" lon="2.46387">
        <ele>1980.1982595218</ele>
        <time>2017-07-29T16:17:00Z</time>
      </trkpt>
      <trkpt lat="42.53912" lon="2.46395">
        <ele>1980.1982595218</ele>
        <time>2017-07-29T16:17:07Z</time>
      </trkpt>
      <trkpt lat="42.53916" lon="2.46412">
        <ele>1985.5321103695</ele>
        <time>2017-07-29T16:17:24Z</time>
      </trkpt>
      <trkpt lat="42.53934" lon="2.46452">
        <ele>1990.7676943751</ele>
        <time>2017-07-29T16:18:22Z</time>
      </trkpt>
      <trkpt lat="42.53947" lon="2.46519">
        <ele>1995.8356817219</ele>
        <time>2017-07-29T16:19:20Z</time>
      </trkpt>
      <trkpt lat="42.53944" lon="2.46571">
        <ele>2001.9837674954</ele>
        <time>2017-07-29T16:20:09Z</time>
      </trkpt>
      <trkpt lat="42.53937" lon="2.46588">
        <ele>2007.7854337728</ele>
        <time>2017-07-29T16:20:32Z</time>
      </trkpt>
      <trkpt lat="42.53933" lon="2.46592">
        <ele>2007.7854337728</ele>
        <time>2017-07-29T16:20:32Z</time>
      </trkpt>
      <trkpt lat="42.53926" lon="2.46667">
        <ele>2015.0616252471</ele>
        <time>2017-07-29T16:21:47Z</time>
      </trkpt>
      <trkpt lat="42.53925" lon="2.46673">
        <ele>2015.0616252471</ele>
        <time>2017-07-29T16:21:47Z</time>
      </trkpt>
      <trkpt lat="42.53923" lon="2.46675">
        <ele>2015.0616252471</ele>
        <time>2017-07-29T16:22:00Z</time>
      </trkpt>
      <trkpt lat="42.5392" lon="2.46677">
        <ele>2022.2097422532</ele>
        <time>2017-07-29T16:22:00Z</time>
      </trkpt>
      <trkpt lat="42.5391" lon="2.46665">
        <ele>2029.4170704903</ele>
        <time>2017-07-29T16:22:35Z</time>
      </trkpt>
      <trkpt lat="42.53902" lon="2.46627">
        <ele>2036.9435682576</ele>
        <time>2017-07-29T16:23:22Z</time>
      </trkpt>
      <trkpt lat="42.53895" lon="2.46619">
        <ele>2043.7467611805</ele>
        <time>2017-07-29T16:23:22Z</time>
      </trkpt>
      <trkpt lat="42.53878" lon="2.46599">
        <ele>2050.1743592617</ele>
        <time>2017-07-29T16:23:47Z</time>
      </trkpt>
      <trkpt lat="42.53846" lon="2.46568">
        <ele>2056.5785826035</ele>
        <time>2017-07-29T16:24:30Z</time>
      </trkpt>
      <trkpt lat="42.5382" lon="2.46562">
        <ele>2062.4790057224</ele>
        <time>2017-07-29T16:24:56Z</time>
      </trkpt>
      <trkpt lat="42.53784" lon="2.46565">
        <ele>2068.0085423034</ele>
        <time>2017-07-29T16:25:37Z</time>
      </trkpt>
      <trkpt lat="42.53774" lon="2.46568">
        <ele>2072.8448274984</ele>
        <time>2017-07-29T16:25:37Z</time>
      </trkpt>
      <trkpt lat="42.53757" lon="2.46575">
        <ele>2077.2245185636</ele>
        <time>2017-07-29T16:26:00Z</time>
      </trkpt>
      <trkpt lat="42.53751" lon="2.46579">
        <ele>2077.2245185636</ele>
        <time>2017-07-29T16:26:00Z</time>
      </trkpt>
      <trkpt lat="42.53731" lon="2.46594">
        <ele>2081.0080674368</ele>
        <time>2017-07-29T16:26:37Z</time>
      </trkpt>
      <trkpt lat="42.53724" lon="2.46597">
        <ele>2081.0080674368</ele>
        <time>2017-07-29T16:26:37Z</time>
      </trkpt>
      <trkpt lat="42.53697" lon="2.46633">
        <ele>2085.7973493494</ele>
        <time>2017-07-29T16:28:05Z</time>
      </trkpt>
      <trkpt lat="42.537" lon="2.46601">
        <ele>2090.3501976871</ele>
        <time>2017-07-29T16:28:45Z</time>
      </trkpt>
      <trkpt lat="42.53697" lon="2.46602">
        <ele>2090.3501976871</ele>
        <time>2017-07-29T16:29:13Z</time>
      </trkpt>
      <trkpt lat="42.53696" lon="2.466">
        <ele>2090.3501976871</ele>
        <time>2017-07-29T16:29:15Z</time>
      </trkpt>
      <trkpt lat="42.53698" lon="2.4658">
        <ele>2094.7270328121</ele>
        <time>2017-07-29T16:29:23Z</time>
      </trkpt>
      <trkpt lat="42.53696" lon="2.46547">
        <ele>2098.854759685</ele>
        <time>2017-07-29T16:29:50Z</time>
      </trkpt>
      <trkpt lat="42.53688" lon="2.46521">
        <ele>2102.8682253108</ele>
        <time>2017-07-29T16:30:23Z</time>
      </trkpt>
      <trkpt lat="42.53683" lon="2.46491">
        <ele>2106.7630971735</ele>
        <time>2017-07-29T16:30:40Z</time>
      </trkpt>
      <trkpt lat="42.53643" lon="2.46435">
        <ele>2111.0545875659</ele>
        <time>2017-07-29T16:31:45Z</time>
      </trkpt>
      <trkpt lat="42.53639" lon="2.46434">
        <ele>2111.0545875659</ele>
        <time>2017-07-29T16:31:50Z</time>
      </trkpt>
      <trkpt lat="42.53632" lon="2.46433">
        <ele>2114.7202736347</ele>
        <time>2017-07-29T16:32:00Z</time>
      </trkpt>
      <trkpt lat="42.5363" lon="2.46434">
        <ele>2114.7202736347</ele>
        <time>2017-07-29T16:32:05Z</time>
      </trkpt>
      <trkpt lat="42.5363" lon="2.46434">
        <ele>2114.7202736347</ele>
        <time>2017-07-29T16:32:30Z</time>
      </trkpt>
      <trkpt lat="42.53627" lon="2.46433">
        <ele>2114.7202736347</ele>
        <time>2017-07-29T16:32:35Z</time>
      </trkpt>
      <trkpt lat="42.53617" lon="2.46415">
        <ele>2117.5928618799</ele>
        <time>2017-07-29T16:33:08Z</time>
      </trkpt>
      <trkpt lat="42.53613" lon="2.4641">
        <ele>2117.5928618799</ele>
        <time>2017-07-29T16:33:08Z</time>
      </trkpt>
      <trkpt lat="42.53598" lon="2.46398">
        <ele>2120.0240134099</ele>
        <time>2017-07-29T16:33:22Z</time>
      </trkpt>
      <trkpt lat="42.53596" lon="2.46397">
        <ele>2120.0240134099</ele>
        <time>2017-07-29T16:33:28Z</time>
      </trkpt>
      <trkpt lat="42.53586" lon="2.46385">
        <ele>2122.1967171911</ele>
        <time>2017-07-29T16:33:43Z</time>
      </trkpt>
      <trkpt lat="42.53585" lon="2.46383">
        <ele>2122.1967171911</ele>
        <time>2017-07-29T16:33:45Z</time>
      </trkpt>
      <trkpt lat="42.53523" lon="2.46336">
        <ele>2125.0018150527</ele>
        <time>2017-07-29T16:35:23Z</time>
      </trkpt>
      <trkpt lat="42.53502" lon="2.46332">
        <ele>2127.4471275707</ele>
        <time>2017-07-29T16:35:46Z</time>
      </trkpt>
      <trkpt lat="42.5349" lon="2.46335">
        <ele>2129.551066939</ele>
        <time>2017-07-29T16:35:50Z</time>
      </trkpt>
      <trkpt lat="42.53481" lon="2.46332">
        <ele>2131.46130685</ele>
        <time>2017-07-29T16:36:25Z</time>
      </trkpt>
      <trkpt lat="42.53479" lon="2.46328">
        <ele>2131.46130685</ele>
        <time>2017-07-29T16:36:25Z</time>
      </trkpt>
      <trkpt lat="42.53433" lon="2.4634">
        <ele>2133.2575102879</ele>
        <time>2017-07-29T16:37:16Z</time>
      </trkpt>
      <trkpt lat="42.5343" lon="2.4634">
        <ele>2133.2575102879</ele>
        <time>2017-07-29T16:37:16Z</time>
      </trkpt>
      <trkpt lat="42.53426" lon="2.46341">
        <ele>2133.2575102879</ele>
        <time>2017-07-29T16:37:20Z</time>
      </trkpt>
      <trkpt lat="42.5342" lon="2.46344">
        <ele>2134.8984392281</ele>
        <time>2017-07-29T16:37:39Z</time>
      </trkpt>
      <trkpt lat="42.53412" lon="2.46352">
        <ele>2136.2741664955</ele>
        <time>2017-07-29T16:37:40Z</time>
      </trkpt>
      <trkpt lat="42.53389" lon="2.46368">
        <ele>2137.7878569623</ele>
        <time>2017-07-29T16:38:16Z</time>
      </trkpt>
      <trkpt lat="42.5338" lon="2.46375">
        <ele>2139.437850399</ele>
        <time>2017-07-29T16:38:39Z</time>
      </trkpt>
      <trkpt lat="42.53365" lon="2.46393">
        <ele>2140.9915001432</ele>
        <time>2017-07-29T16:38:50Z</time>
      </trkpt>
      <trkpt lat="42.5336" lon="2.4641">
        <ele>2142.5936360527</ele>
        <time>2017-07-29T16:39:15Z</time>
      </trkpt>
      <trkpt lat="42.53357" lon="2.46427">
        <ele>2144.0322722652</ele>
        <time>2017-07-29T16:39:31Z</time>
      </trkpt>
      <trkpt lat="42.53357" lon="2.46433">
        <ele>2144.0322722652</ele>
        <time>2017-07-29T16:39:36Z</time>
      </trkpt>
      <trkpt lat="42.53358" lon="2.46438">
        <ele>2144.0322722652</ele>
        <time>2017-07-29T16:39:41Z</time>
      </trkpt>
      <trkpt lat="42.53361" lon="2.46442">
        <ele>2145.3130247982</ele>
        <time>2017-07-29T16:39:45Z</time>
      </trkpt>
      <trkpt lat="42.53402" lon="2.4647">
        <ele>2146.7295676505</ele>
        <time>2017-07-29T16:40:37Z</time>
      </trkpt>
      <trkpt lat="42.53412" lon="2.46485">
        <ele>2147.9193275363</ele>
        <time>2017-07-29T16:40:46Z</time>
      </trkpt>
      <trkpt lat="42.53415" lon="2.46487">
        <ele>2147.9193275363</ele>
        <time>2017-07-29T16:40:54Z</time>
      </trkpt>
      <trkpt lat="42.5342" lon="2.46495">
        <ele>2148.8782443485</ele>
        <time>2017-07-29T16:41:16Z</time>
      </trkpt>
      <trkpt lat="42.53428" lon="2.46499">
        <ele>2148.8782443485</ele>
        <time>2017-07-29T16:41:20Z</time>
      </trkpt>
      <trkpt lat="42.53427" lon="2.46495">
        <ele>2149.7615044446</ele>
        <time>2017-07-29T16:41:50Z</time>
      </trkpt>
      <trkpt lat="42.53432" lon="2.46495">
        <ele>2149.7615044446</ele>
        <time>2017-07-29T16:42:15Z</time>
      </trkpt>
      <trkpt lat="42.53446" lon="2.46501">
        <ele>2150.4534763775</ele>
        <time>2017-07-29T16:43:12Z</time>
      </trkpt>
      <trkpt lat="42.53432" lon="2.46483">
        <ele>2150.9337875884</ele>
        <time>2017-07-29T16:43:44Z</time>
      </trkpt>
      <trkpt lat="42.53429" lon="2.46497">
        <ele>2151.1983195698</ele>
        <time>2017-07-29T16:43:59Z</time>
      </trkpt>
      <trkpt lat="42.53436" lon="2.46494">
        <ele>2151.1983195698</ele>
        <time>2017-07-29T16:44:30Z</time>
      </trkpt>
      <trkpt lat="42.53436" lon="2.46493">
        <ele>2151.1983195698</ele>
        <time>2017-07-29T16:44:44Z</time>
      </trkpt>
      <trkpt lat="42.53429" lon="2.46481">
        <ele>2151.4741836394</ele>
        <time>2017-07-29T16:45:30Z</time>
      </trkpt>
      <trkpt lat="42.53435" lon="2.46492">
        <ele>2151.697700442</ele>
        <time>2017-07-29T16:47:06Z</time>
      </trkpt>
      <trkpt lat="42.53439" lon="2.46491">
        <ele>2151.697700442</ele>
        <time>2017-07-29T16:48:35Z</time>
      </trkpt>
      <trkpt lat="42.53433" lon="2.46481">
        <ele>2152.1267884135</ele>
        <time>2017-07-29T16:49:58Z</time>
      </trkpt>
      <trkpt lat="42.53428" lon="2.46466">
        <ele>2152.4087092588</ele>
        <time>2017-07-29T16:51:00Z</time>
      </trkpt>
      <trkpt lat="42.53411" lon="2.46484">
        <ele>2153.5281800265</ele>
        <time>2017-07-29T17:06:20Z</time>
      </trkpt>
      <trkpt lat="42.53452" lon="2.4652">
        <ele>2154.7088487704</ele>
        <time>2017-07-29T17:07:15Z</time>
      </trkpt>
      <trkpt lat="42.53455" lon="2.46521">
        <ele>2154.7088487704</ele>
        <time>2017-07-29T17:07:22Z</time>
      </trkpt>
      <trkpt lat="42.53457" lon="2.4652">
        <ele>2154.7088487704</ele>
        <time>2017-07-29T17:07:28Z</time>
      </trkpt>
      <trkpt lat="42.53456" lon="2.46515">
        <ele>2154.7088487704</ele>
        <time>2017-07-29T17:07:30Z</time>
      </trkpt>
      <trkpt lat="42.53447" lon="2.46508">
        <ele>2155.6920973245</ele>
        <time>2017-07-29T17:07:40Z</time>
      </trkpt>
      <trkpt lat="42.53444" lon="2.46504">
        <ele>2155.6920973245</ele>
        <time>2017-07-29T17:08:00Z</time>
      </trkpt>
      <trkpt lat="42.53451" lon="2.46498">
        <ele>2156.5700376283</ele>
        <time>2017-07-29T17:08:36Z</time>
      </trkpt>
      <trkpt lat="42.53435" lon="2.46503">
        <ele>2157.4424489177</ele>
        <time>2017-07-29T17:09:15Z</time>
      </trkpt>
      <trkpt lat="42.5343" lon="2.46517">
        <ele>2158.0412495973</ele>
        <time>2017-07-29T17:09:44Z</time>
      </trkpt>
      <trkpt lat="42.53428" lon="2.46511">
        <ele>2158.0412495973</ele>
        <time>2017-07-29T17:09:52Z</time>
      </trkpt>
      <trkpt lat="42.53433" lon="2.46521">
        <ele>2158.5220648044</ele>
        <time>2017-07-29T17:10:05Z</time>
      </trkpt>
      <trkpt lat="42.53434" lon="2.46525">
        <ele>2158.5220648044</ele>
        <time>2017-07-29T17:10:10Z</time>
      </trkpt>
      <trkpt lat="42.53435" lon="2.46528">
        <ele>2158.5220648044</ele>
        <time>2017-07-29T17:10:15Z</time>
      </trkpt>
      <trkpt lat="42.53435" lon="2.46528">
        <ele>2158.5220648044</ele>
        <time>2017-07-29T17:10:20Z</time>
      </trkpt>
      <trkpt lat="42.53413" lon="2.46506">
        <ele>2158.899456246</ele>
        <time>2017-07-29T17:10:40Z</time>
      </trkpt>
      <trkpt lat="42.53382" lon="2.46521">
        <ele>2159.1725351438</ele>
        <time>2017-07-29T17:10:51Z</time>
      </trkpt>
      <trkpt lat="42.53378" lon="2.46521">
        <ele>2159.1725351438</ele>
        <time>2017-07-29T17:10:52Z</time>
      </trkpt>
      <trkpt lat="42.53346" lon="2.46527">
        <ele>2159.340512712</ele>
        <time>2017-07-29T17:10:57Z</time>
      </trkpt>
      <trkpt lat="42.53334" lon="2.4653">
        <ele>2159.4315189238</ele>
        <time>2017-07-29T17:11:06Z</time>
      </trkpt>
      <trkpt lat="42.53359" lon="2.46517">
        <ele>2159.485989709</ele>
        <time>2017-07-29T17:11:38Z</time>
      </trkpt>
      <trkpt lat="42.53371" lon="2.46514">
        <ele>2159.469184381</ele>
        <time>2017-07-29T17:11:40Z</time>
      </trkpt>
      <trkpt lat="42.53412" lon="2.46502">
        <ele>2159.3920960839</ele>
        <time>2017-07-29T17:11:48Z</time>
      </trkpt>
      <trkpt lat="42.53423" lon="2.46499">
        <ele>2159.2648297942</ele>
        <time>2017-07-29T17:11:50Z</time>
      </trkpt>
      <trkpt lat="42.53428" lon="2.46499">
        <ele>2159.2648297942</ele>
        <time>2017-07-29T17:11:55Z</time>
      </trkpt>
      <trkpt lat="42.53431" lon="2.46498">
        <ele>2159.2648297942</ele>
        <time>2017-07-29T17:12:00Z</time>
      </trkpt>
      <trkpt lat="42.53437" lon="2.46496">
        <ele>2159.0966411552</ele>
        <time>2017-07-29T17:12:05Z</time>
      </trkpt>
      <trkpt lat="42.53444" lon="2.4649">
        <ele>2159.0966411552</ele>
        <time>2017-07-29T17:12:10Z</time>
      </trkpt>
    </trkseg>
  </trk>
</gpx>